<?xml version="1.0" encoding="UTF-8" standalone="no" ?>
<gpx xmlns="http://www.topografix.com/GPX/1/1" xmlns:xsi="http://www.w3.org/2001/XMLSchema-instance" xsi:schemaLocation="http://www.topografix.com/GPX/1/1 http://www.topografix.com/GPX/1/1/gpx.xsd" version="1.1" creator="VisuGPX - https://www.visugpx.com">
  <metadata>
    <name>Grande Pointe des Journées</name>
  </metadata>
  <trk>
    <name><![CDATA[Randonnée du 22/05/2022 à 09:45]]></name>
    <trkseg>
      <trkpt lat="46.28449" lon="6.55538">
        <ele>941</ele>
        <time>2022-05-22T09:45:50+02:00</time>
      </trkpt>
      <trkpt lat="46.28441" lon="6.55543">
        <ele>888</ele>
        <time>2022-05-22T09:45:50+02:00</time>
      </trkpt>
      <trkpt lat="46.28437" lon="6.55555">
        <ele>857</ele>
        <time>2022-05-22T09:47:28+02:00</time>
      </trkpt>
      <trkpt lat="46.28441" lon="6.55568">
        <ele>861</ele>
        <time>2022-05-22T09:51:07+02:00</time>
      </trkpt>
      <trkpt lat="46.28436" lon="6.5558">
        <ele>861</ele>
        <time>2022-05-22T09:51:18+02:00</time>
      </trkpt>
      <trkpt lat="46.28433" lon="6.55593">
        <ele>863</ele>
        <time>2022-05-22T09:51:27+02:00</time>
      </trkpt>
      <trkpt lat="46.28429" lon="6.55605">
        <ele>863</ele>
        <time>2022-05-22T09:53:18+02:00</time>
      </trkpt>
      <trkpt lat="46.28437" lon="6.55613">
        <ele>865</ele>
        <time>2022-05-22T09:55:59+02:00</time>
      </trkpt>
      <trkpt lat="46.28445" lon="6.55619">
        <ele>865</ele>
        <time>2022-05-22T09:56:10+02:00</time>
      </trkpt>
      <trkpt lat="46.28453" lon="6.55627">
        <ele>866</ele>
        <time>2022-05-22T09:56:24+02:00</time>
      </trkpt>
      <trkpt lat="46.28462" lon="6.55628">
        <ele>868</ele>
        <time>2022-05-22T09:56:39+02:00</time>
      </trkpt>
      <trkpt lat="46.28471" lon="6.55622">
        <ele>869</ele>
        <time>2022-05-22T09:56:49+02:00</time>
      </trkpt>
      <trkpt lat="46.28479" lon="6.55615">
        <ele>867</ele>
        <time>2022-05-22T09:57:01+02:00</time>
      </trkpt>
      <trkpt lat="46.28485" lon="6.55605">
        <ele>870</ele>
        <time>2022-05-22T09:57:14+02:00</time>
      </trkpt>
      <trkpt lat="46.28492" lon="6.55615">
        <ele>871</ele>
        <time>2022-05-22T09:57:28+02:00</time>
      </trkpt>
      <trkpt lat="46.28493" lon="6.55628">
        <ele>873</ele>
        <time>2022-05-22T09:57:42+02:00</time>
      </trkpt>
      <trkpt lat="46.28493" lon="6.55641">
        <ele>874</ele>
        <time>2022-05-22T09:57:57+02:00</time>
      </trkpt>
      <trkpt lat="46.28487" lon="6.55651">
        <ele>877</ele>
        <time>2022-05-22T09:58:15+02:00</time>
      </trkpt>
      <trkpt lat="46.2848" lon="6.5566">
        <ele>877</ele>
        <time>2022-05-22T09:58:26+02:00</time>
      </trkpt>
      <trkpt lat="46.28473" lon="6.5567">
        <ele>876</ele>
        <time>2022-05-22T09:58:35+02:00</time>
      </trkpt>
      <trkpt lat="46.28467" lon="6.5568">
        <ele>877</ele>
        <time>2022-05-22T09:58:44+02:00</time>
      </trkpt>
      <trkpt lat="46.28461" lon="6.55691">
        <ele>878</ele>
        <time>2022-05-22T09:58:55+02:00</time>
      </trkpt>
      <trkpt lat="46.28453" lon="6.55697">
        <ele>879</ele>
        <time>2022-05-22T09:59:08+02:00</time>
      </trkpt>
      <trkpt lat="46.28445" lon="6.55704">
        <ele>880</ele>
        <time>2022-05-22T09:59:24+02:00</time>
      </trkpt>
      <trkpt lat="46.28438" lon="6.55714">
        <ele>881</ele>
        <time>2022-05-22T09:59:32+02:00</time>
      </trkpt>
      <trkpt lat="46.28444" lon="6.55725">
        <ele>884</ele>
        <time>2022-05-22T09:59:51+02:00</time>
      </trkpt>
      <trkpt lat="46.28453" lon="6.55728">
        <ele>886</ele>
        <time>2022-05-22T10:00:06+02:00</time>
      </trkpt>
      <trkpt lat="46.28461" lon="6.55723">
        <ele>889</ele>
        <time>2022-05-22T10:00:16+02:00</time>
      </trkpt>
      <trkpt lat="46.28467" lon="6.55713">
        <ele>894</ele>
        <time>2022-05-22T10:00:23+02:00</time>
      </trkpt>
      <trkpt lat="46.28476" lon="6.55708">
        <ele>894</ele>
        <time>2022-05-22T10:00:35+02:00</time>
      </trkpt>
      <trkpt lat="46.28484" lon="6.557">
        <ele>898</ele>
        <time>2022-05-22T10:00:47+02:00</time>
      </trkpt>
      <trkpt lat="46.28492" lon="6.55694">
        <ele>899</ele>
        <time>2022-05-22T10:01:02+02:00</time>
      </trkpt>
      <trkpt lat="46.28498" lon="6.55684">
        <ele>900</ele>
        <time>2022-05-22T10:01:13+02:00</time>
      </trkpt>
      <trkpt lat="46.28505" lon="6.55676">
        <ele>898</ele>
        <time>2022-05-22T10:01:28+02:00</time>
      </trkpt>
      <trkpt lat="46.28514" lon="6.5567">
        <ele>901</ele>
        <time>2022-05-22T10:01:38+02:00</time>
      </trkpt>
      <trkpt lat="46.28521" lon="6.55662">
        <ele>902</ele>
        <time>2022-05-22T10:01:48+02:00</time>
      </trkpt>
      <trkpt lat="46.28525" lon="6.5565">
        <ele>902</ele>
        <time>2022-05-22T10:01:58+02:00</time>
      </trkpt>
      <trkpt lat="46.28529" lon="6.55638">
        <ele>901</ele>
        <time>2022-05-22T10:02:12+02:00</time>
      </trkpt>
      <trkpt lat="46.28533" lon="6.55626">
        <ele>902</ele>
        <time>2022-05-22T10:02:23+02:00</time>
      </trkpt>
      <trkpt lat="46.28539" lon="6.55616">
        <ele>903</ele>
        <time>2022-05-22T10:02:36+02:00</time>
      </trkpt>
      <trkpt lat="46.28545" lon="6.55605">
        <ele>903</ele>
        <time>2022-05-22T10:02:47+02:00</time>
      </trkpt>
      <trkpt lat="46.28552" lon="6.55597">
        <ele>904</ele>
        <time>2022-05-22T10:02:58+02:00</time>
      </trkpt>
      <trkpt lat="46.2856" lon="6.55604">
        <ele>906</ele>
        <time>2022-05-22T10:03:18+02:00</time>
      </trkpt>
      <trkpt lat="46.28552" lon="6.55612">
        <ele>908</ele>
        <time>2022-05-22T10:03:33+02:00</time>
      </trkpt>
      <trkpt lat="46.28547" lon="6.55623">
        <ele>908</ele>
        <time>2022-05-22T10:03:46+02:00</time>
      </trkpt>
      <trkpt lat="46.28543" lon="6.55635">
        <ele>910</ele>
        <time>2022-05-22T10:04:01+02:00</time>
      </trkpt>
      <trkpt lat="46.28538" lon="6.55646">
        <ele>911</ele>
        <time>2022-05-22T10:04:12+02:00</time>
      </trkpt>
      <trkpt lat="46.28536" lon="6.5566">
        <ele>911</ele>
        <time>2022-05-22T10:04:22+02:00</time>
      </trkpt>
      <trkpt lat="46.28532" lon="6.55671">
        <ele>915</ele>
        <time>2022-05-22T10:04:34+02:00</time>
      </trkpt>
      <trkpt lat="46.28528" lon="6.55684">
        <ele>913</ele>
        <time>2022-05-22T10:04:44+02:00</time>
      </trkpt>
      <trkpt lat="46.2852" lon="6.55707">
        <ele>914</ele>
        <time>2022-05-22T10:05:09+02:00</time>
      </trkpt>
      <trkpt lat="46.28517" lon="6.55721">
        <ele>916</ele>
        <time>2022-05-22T10:05:18+02:00</time>
      </trkpt>
      <trkpt lat="46.28513" lon="6.55734">
        <ele>917</ele>
        <time>2022-05-22T10:05:31+02:00</time>
      </trkpt>
      <trkpt lat="46.2851" lon="6.55747">
        <ele>920</ele>
        <time>2022-05-22T10:05:44+02:00</time>
      </trkpt>
      <trkpt lat="46.28504" lon="6.55756">
        <ele>922</ele>
        <time>2022-05-22T10:05:55+02:00</time>
      </trkpt>
      <trkpt lat="46.28503" lon="6.5577">
        <ele>922</ele>
        <time>2022-05-22T10:06:06+02:00</time>
      </trkpt>
      <trkpt lat="46.28497" lon="6.55781">
        <ele>923</ele>
        <time>2022-05-22T10:06:15+02:00</time>
      </trkpt>
      <trkpt lat="46.28493" lon="6.55793">
        <ele>923</ele>
        <time>2022-05-22T10:06:25+02:00</time>
      </trkpt>
      <trkpt lat="46.28487" lon="6.55805">
        <ele>921</ele>
        <time>2022-05-22T10:06:33+02:00</time>
      </trkpt>
      <trkpt lat="46.28482" lon="6.55816">
        <ele>925</ele>
        <time>2022-05-22T10:06:43+02:00</time>
      </trkpt>
      <trkpt lat="46.28478" lon="6.55828">
        <ele>925</ele>
        <time>2022-05-22T10:06:54+02:00</time>
      </trkpt>
      <trkpt lat="46.28474" lon="6.5584">
        <ele>927</ele>
        <time>2022-05-22T10:07:05+02:00</time>
      </trkpt>
      <trkpt lat="46.28472" lon="6.55853">
        <ele>927</ele>
        <time>2022-05-22T10:07:16+02:00</time>
      </trkpt>
      <trkpt lat="46.28471" lon="6.55867">
        <ele>928</ele>
        <time>2022-05-22T10:07:27+02:00</time>
      </trkpt>
      <trkpt lat="46.2847" lon="6.5588">
        <ele>929</ele>
        <time>2022-05-22T10:07:38+02:00</time>
      </trkpt>
      <trkpt lat="46.28469" lon="6.55893">
        <ele>930</ele>
        <time>2022-05-22T10:07:49+02:00</time>
      </trkpt>
      <trkpt lat="46.28468" lon="6.55907">
        <ele>932</ele>
        <time>2022-05-22T10:08:01+02:00</time>
      </trkpt>
      <trkpt lat="46.28467" lon="6.5592">
        <ele>933</ele>
        <time>2022-05-22T10:08:16+02:00</time>
      </trkpt>
      <trkpt lat="46.28465" lon="6.55934">
        <ele>934</ele>
        <time>2022-05-22T10:08:28+02:00</time>
      </trkpt>
      <trkpt lat="46.28464" lon="6.55947">
        <ele>936</ele>
        <time>2022-05-22T10:08:39+02:00</time>
      </trkpt>
      <trkpt lat="46.28465" lon="6.55961">
        <ele>936</ele>
        <time>2022-05-22T10:08:53+02:00</time>
      </trkpt>
      <trkpt lat="46.28462" lon="6.55974">
        <ele>937</ele>
        <time>2022-05-22T10:09:06+02:00</time>
      </trkpt>
      <trkpt lat="46.28455" lon="6.55985">
        <ele>938</ele>
        <time>2022-05-22T10:09:17+02:00</time>
      </trkpt>
      <trkpt lat="46.28447" lon="6.55992">
        <ele>939</ele>
        <time>2022-05-22T10:09:29+02:00</time>
      </trkpt>
      <trkpt lat="46.28445" lon="6.56015">
        <ele>942</ele>
        <time>2022-05-22T10:10:13+02:00</time>
      </trkpt>
      <trkpt lat="46.28444" lon="6.56029">
        <ele>945</ele>
        <time>2022-05-22T10:10:27+02:00</time>
      </trkpt>
      <trkpt lat="46.28441" lon="6.56042">
        <ele>946</ele>
        <time>2022-05-22T10:10:54+02:00</time>
      </trkpt>
      <trkpt lat="46.28432" lon="6.56047">
        <ele>952</ele>
        <time>2022-05-22T10:11:12+02:00</time>
      </trkpt>
      <trkpt lat="46.28429" lon="6.5606">
        <ele>955</ele>
        <time>2022-05-22T10:11:30+02:00</time>
      </trkpt>
      <trkpt lat="46.28428" lon="6.56073">
        <ele>957</ele>
        <time>2022-05-22T10:11:56+02:00</time>
      </trkpt>
      <trkpt lat="46.28431" lon="6.56086">
        <ele>959</ele>
        <time>2022-05-22T10:12:14+02:00</time>
      </trkpt>
      <trkpt lat="46.28432" lon="6.56099">
        <ele>963</ele>
        <time>2022-05-22T10:12:39+02:00</time>
      </trkpt>
      <trkpt lat="46.28432" lon="6.56112">
        <ele>964</ele>
        <time>2022-05-22T10:13:01+02:00</time>
      </trkpt>
      <trkpt lat="46.28431" lon="6.56126">
        <ele>967</ele>
        <time>2022-05-22T10:13:23+02:00</time>
      </trkpt>
      <trkpt lat="46.28435" lon="6.56138">
        <ele>970</ele>
        <time>2022-05-22T10:13:45+02:00</time>
      </trkpt>
      <trkpt lat="46.28432" lon="6.5615">
        <ele>976</ele>
        <time>2022-05-22T10:14:23+02:00</time>
      </trkpt>
      <trkpt lat="46.28428" lon="6.56162">
        <ele>979</ele>
        <time>2022-05-22T10:14:46+02:00</time>
      </trkpt>
      <trkpt lat="46.28429" lon="6.56175">
        <ele>986</ele>
        <time>2022-05-22T10:15:14+02:00</time>
      </trkpt>
      <trkpt lat="46.28429" lon="6.56189">
        <ele>990</ele>
        <time>2022-05-22T10:16:06+02:00</time>
      </trkpt>
      <trkpt lat="46.28437" lon="6.56195">
        <ele>992</ele>
        <time>2022-05-22T10:16:43+02:00</time>
      </trkpt>
      <trkpt lat="46.28439" lon="6.56208">
        <ele>994</ele>
        <time>2022-05-22T10:17:02+02:00</time>
      </trkpt>
      <trkpt lat="46.28437" lon="6.56222">
        <ele>999</ele>
        <time>2022-05-22T10:17:25+02:00</time>
      </trkpt>
      <trkpt lat="46.28443" lon="6.56232">
        <ele>1002</ele>
        <time>2022-05-22T10:17:49+02:00</time>
      </trkpt>
      <trkpt lat="46.2844" lon="6.56244">
        <ele>1004</ele>
        <time>2022-05-22T10:18:18+02:00</time>
      </trkpt>
      <trkpt lat="46.28437" lon="6.56257">
        <ele>1007</ele>
        <time>2022-05-22T10:18:37+02:00</time>
      </trkpt>
      <trkpt lat="46.28442" lon="6.56268">
        <ele>1011</ele>
        <time>2022-05-22T10:18:59+02:00</time>
      </trkpt>
      <trkpt lat="46.28444" lon="6.56281">
        <ele>1013</ele>
        <time>2022-05-22T10:19:20+02:00</time>
      </trkpt>
      <trkpt lat="46.28451" lon="6.56291">
        <ele>1018</ele>
        <time>2022-05-22T10:19:41+02:00</time>
      </trkpt>
      <trkpt lat="46.28457" lon="6.56301">
        <ele>1023</ele>
        <time>2022-05-22T10:20:10+02:00</time>
      </trkpt>
      <trkpt lat="46.28466" lon="6.56306">
        <ele>1030</ele>
        <time>2022-05-22T10:23:29+02:00</time>
      </trkpt>
      <trkpt lat="46.28475" lon="6.56307">
        <ele>1033</ele>
        <time>2022-05-22T10:23:49+02:00</time>
      </trkpt>
      <trkpt lat="46.28482" lon="6.56316">
        <ele>1036</ele>
        <time>2022-05-22T10:24:06+02:00</time>
      </trkpt>
      <trkpt lat="46.28484" lon="6.56329">
        <ele>1037</ele>
        <time>2022-05-22T10:24:24+02:00</time>
      </trkpt>
      <trkpt lat="46.28487" lon="6.56341">
        <ele>1041</ele>
        <time>2022-05-22T10:24:45+02:00</time>
      </trkpt>
      <trkpt lat="46.28491" lon="6.56353">
        <ele>1043</ele>
        <time>2022-05-22T10:25:03+02:00</time>
      </trkpt>
      <trkpt lat="46.28498" lon="6.56363">
        <ele>1047</ele>
        <time>2022-05-22T10:25:31+02:00</time>
      </trkpt>
      <trkpt lat="46.28506" lon="6.5637">
        <ele>1049</ele>
        <time>2022-05-22T10:25:53+02:00</time>
      </trkpt>
      <trkpt lat="46.28512" lon="6.56379">
        <ele>1052</ele>
        <time>2022-05-22T10:26:14+02:00</time>
      </trkpt>
      <trkpt lat="46.28519" lon="6.56389">
        <ele>1055</ele>
        <time>2022-05-22T10:26:34+02:00</time>
      </trkpt>
      <trkpt lat="46.28524" lon="6.564">
        <ele>1058</ele>
        <time>2022-05-22T10:26:56+02:00</time>
      </trkpt>
      <trkpt lat="46.28528" lon="6.56412">
        <ele>1062</ele>
        <time>2022-05-22T10:27:24+02:00</time>
      </trkpt>
      <trkpt lat="46.28534" lon="6.56422">
        <ele>1065</ele>
        <time>2022-05-22T10:27:46+02:00</time>
      </trkpt>
      <trkpt lat="46.2854" lon="6.56432">
        <ele>1069</ele>
        <time>2022-05-22T10:28:09+02:00</time>
      </trkpt>
      <trkpt lat="46.28547" lon="6.56441">
        <ele>1071</ele>
        <time>2022-05-22T10:28:30+02:00</time>
      </trkpt>
      <trkpt lat="46.28552" lon="6.56453">
        <ele>1075</ele>
        <time>2022-05-22T10:28:51+02:00</time>
      </trkpt>
      <trkpt lat="46.28558" lon="6.56463">
        <ele>1077</ele>
        <time>2022-05-22T10:29:12+02:00</time>
      </trkpt>
      <trkpt lat="46.28563" lon="6.56474">
        <ele>1082</ele>
        <time>2022-05-22T10:29:34+02:00</time>
      </trkpt>
      <trkpt lat="46.2857" lon="6.56482">
        <ele>1084</ele>
        <time>2022-05-22T10:29:47+02:00</time>
      </trkpt>
      <trkpt lat="46.28573" lon="6.56495">
        <ele>1084</ele>
        <time>2022-05-22T10:30:04+02:00</time>
      </trkpt>
      <trkpt lat="46.28577" lon="6.56507">
        <ele>1088</ele>
        <time>2022-05-22T10:30:30+02:00</time>
      </trkpt>
      <trkpt lat="46.28584" lon="6.56516">
        <ele>1090</ele>
        <time>2022-05-22T10:30:52+02:00</time>
      </trkpt>
      <trkpt lat="46.2859" lon="6.56526">
        <ele>1096</ele>
        <time>2022-05-22T10:31:23+02:00</time>
      </trkpt>
      <trkpt lat="46.28596" lon="6.56537">
        <ele>1099</ele>
        <time>2022-05-22T10:31:44+02:00</time>
      </trkpt>
      <trkpt lat="46.28598" lon="6.5655">
        <ele>1100</ele>
        <time>2022-05-22T10:32:05+02:00</time>
      </trkpt>
      <trkpt lat="46.28601" lon="6.56562">
        <ele>1103</ele>
        <time>2022-05-22T10:32:30+02:00</time>
      </trkpt>
      <trkpt lat="46.28608" lon="6.56571">
        <ele>1105</ele>
        <time>2022-05-22T10:32:54+02:00</time>
      </trkpt>
      <trkpt lat="46.28615" lon="6.56578">
        <ele>1109</ele>
        <time>2022-05-22T10:33:19+02:00</time>
      </trkpt>
      <trkpt lat="46.28624" lon="6.56583">
        <ele>1112</ele>
        <time>2022-05-22T10:33:42+02:00</time>
      </trkpt>
      <trkpt lat="46.28633" lon="6.56588">
        <ele>1117</ele>
        <time>2022-05-22T10:34:02+02:00</time>
      </trkpt>
      <trkpt lat="46.28639" lon="6.56599">
        <ele>1122</ele>
        <time>2022-05-22T10:34:27+02:00</time>
      </trkpt>
      <trkpt lat="46.28646" lon="6.56608">
        <ele>1123</ele>
        <time>2022-05-22T10:34:45+02:00</time>
      </trkpt>
      <trkpt lat="46.2865" lon="6.5662">
        <ele>1125</ele>
        <time>2022-05-22T10:35:00+02:00</time>
      </trkpt>
      <trkpt lat="46.28654" lon="6.56632">
        <ele>1127</ele>
        <time>2022-05-22T10:35:17+02:00</time>
      </trkpt>
      <trkpt lat="46.2866" lon="6.56642">
        <ele>1128</ele>
        <time>2022-05-22T10:35:34+02:00</time>
      </trkpt>
      <trkpt lat="46.28662" lon="6.56655">
        <ele>1129</ele>
        <time>2022-05-22T10:35:52+02:00</time>
      </trkpt>
      <trkpt lat="46.28665" lon="6.56668">
        <ele>1133</ele>
        <time>2022-05-22T10:36:12+02:00</time>
      </trkpt>
      <trkpt lat="46.28672" lon="6.56677">
        <ele>1136</ele>
        <time>2022-05-22T10:36:37+02:00</time>
      </trkpt>
      <trkpt lat="46.28679" lon="6.56683">
        <ele>1140</ele>
        <time>2022-05-22T10:37:06+02:00</time>
      </trkpt>
      <trkpt lat="46.28689" lon="6.56687">
        <ele>1143</ele>
        <time>2022-05-22T10:37:29+02:00</time>
      </trkpt>
      <trkpt lat="46.28698" lon="6.56689">
        <ele>1146</ele>
        <time>2022-05-22T10:37:55+02:00</time>
      </trkpt>
      <trkpt lat="46.28705" lon="6.56697">
        <ele>1148</ele>
        <time>2022-05-22T10:38:15+02:00</time>
      </trkpt>
      <trkpt lat="46.28714" lon="6.56703">
        <ele>1151</ele>
        <time>2022-05-22T10:38:33+02:00</time>
      </trkpt>
      <trkpt lat="46.28723" lon="6.56707">
        <ele>1154</ele>
        <time>2022-05-22T10:38:52+02:00</time>
      </trkpt>
      <trkpt lat="46.2873" lon="6.56715">
        <ele>1155</ele>
        <time>2022-05-22T10:39:07+02:00</time>
      </trkpt>
      <trkpt lat="46.28739" lon="6.56721">
        <ele>1160</ele>
        <time>2022-05-22T10:39:27+02:00</time>
      </trkpt>
      <trkpt lat="46.28747" lon="6.56728">
        <ele>1161</ele>
        <time>2022-05-22T10:39:43+02:00</time>
      </trkpt>
      <trkpt lat="46.28753" lon="6.56738">
        <ele>1161</ele>
        <time>2022-05-22T10:39:55+02:00</time>
      </trkpt>
      <trkpt lat="46.28759" lon="6.56748">
        <ele>1159</ele>
        <time>2022-05-22T10:40:03+02:00</time>
      </trkpt>
      <trkpt lat="46.28765" lon="6.56758">
        <ele>1162</ele>
        <time>2022-05-22T10:40:12+02:00</time>
      </trkpt>
      <trkpt lat="46.28773" lon="6.56765">
        <ele>1162</ele>
        <time>2022-05-22T10:40:22+02:00</time>
      </trkpt>
      <trkpt lat="46.28781" lon="6.56771">
        <ele>1164</ele>
        <time>2022-05-22T10:40:38+02:00</time>
      </trkpt>
      <trkpt lat="46.28789" lon="6.56779">
        <ele>1163</ele>
        <time>2022-05-22T10:40:50+02:00</time>
      </trkpt>
      <trkpt lat="46.28797" lon="6.56787">
        <ele>1166</ele>
        <time>2022-05-22T10:41:08+02:00</time>
      </trkpt>
      <trkpt lat="46.28804" lon="6.56796">
        <ele>1173</ele>
        <time>2022-05-22T10:41:40+02:00</time>
      </trkpt>
      <trkpt lat="46.28811" lon="6.56803">
        <ele>1176</ele>
        <time>2022-05-22T10:41:54+02:00</time>
      </trkpt>
      <trkpt lat="46.28816" lon="6.56814">
        <ele>1178</ele>
        <time>2022-05-22T10:42:07+02:00</time>
      </trkpt>
      <trkpt lat="46.28821" lon="6.56825">
        <ele>1174</ele>
        <time>2022-05-22T10:44:44+02:00</time>
      </trkpt>
      <trkpt lat="46.28826" lon="6.56836">
        <ele>1178</ele>
        <time>2022-05-22T10:48:02+02:00</time>
      </trkpt>
      <trkpt lat="46.28835" lon="6.5684">
        <ele>1175</ele>
        <time>2022-05-22T10:48:15+02:00</time>
      </trkpt>
      <trkpt lat="46.28844" lon="6.56844">
        <ele>1177</ele>
        <time>2022-05-22T10:48:27+02:00</time>
      </trkpt>
      <trkpt lat="46.28854" lon="6.56844">
        <ele>1180</ele>
        <time>2022-05-22T10:48:41+02:00</time>
      </trkpt>
      <trkpt lat="46.28863" lon="6.5684">
        <ele>1181</ele>
        <time>2022-05-22T10:48:54+02:00</time>
      </trkpt>
      <trkpt lat="46.28872" lon="6.56837">
        <ele>1183</ele>
        <time>2022-05-22T10:49:09+02:00</time>
      </trkpt>
      <trkpt lat="46.28881" lon="6.56837">
        <ele>1186</ele>
        <time>2022-05-22T10:49:25+02:00</time>
      </trkpt>
      <trkpt lat="46.2889" lon="6.56841">
        <ele>1186</ele>
        <time>2022-05-22T10:49:38+02:00</time>
      </trkpt>
      <trkpt lat="46.28899" lon="6.56846">
        <ele>1191</ele>
        <time>2022-05-22T10:49:50+02:00</time>
      </trkpt>
      <trkpt lat="46.28908" lon="6.56851">
        <ele>1191</ele>
        <time>2022-05-22T10:50:02+02:00</time>
      </trkpt>
      <trkpt lat="46.28915" lon="6.56858">
        <ele>1195</ele>
        <time>2022-05-22T10:50:19+02:00</time>
      </trkpt>
      <trkpt lat="46.28922" lon="6.56866">
        <ele>1190</ele>
        <time>2022-05-22T10:50:36+02:00</time>
      </trkpt>
      <trkpt lat="46.28929" lon="6.56875">
        <ele>1191</ele>
        <time>2022-05-22T10:50:50+02:00</time>
      </trkpt>
      <trkpt lat="46.28933" lon="6.56888">
        <ele>1197</ele>
        <time>2022-05-22T10:51:11+02:00</time>
      </trkpt>
      <trkpt lat="46.28939" lon="6.56897">
        <ele>1200</ele>
        <time>2022-05-22T10:51:33+02:00</time>
      </trkpt>
      <trkpt lat="46.28947" lon="6.56904">
        <ele>1205</ele>
        <time>2022-05-22T10:51:58+02:00</time>
      </trkpt>
      <trkpt lat="46.28956" lon="6.56907">
        <ele>1208</ele>
        <time>2022-05-22T10:52:14+02:00</time>
      </trkpt>
      <trkpt lat="46.28965" lon="6.5691">
        <ele>1209</ele>
        <time>2022-05-22T10:52:31+02:00</time>
      </trkpt>
      <trkpt lat="46.28973" lon="6.56916">
        <ele>1214</ele>
        <time>2022-05-22T10:52:47+02:00</time>
      </trkpt>
      <trkpt lat="46.28981" lon="6.56922">
        <ele>1215</ele>
        <time>2022-05-22T10:53:08+02:00</time>
      </trkpt>
      <trkpt lat="46.28989" lon="6.56928">
        <ele>1217</ele>
        <time>2022-05-22T10:53:26+02:00</time>
      </trkpt>
      <trkpt lat="46.28997" lon="6.56936">
        <ele>1218</ele>
        <time>2022-05-22T10:53:48+02:00</time>
      </trkpt>
      <trkpt lat="46.29005" lon="6.56942">
        <ele>1220</ele>
        <time>2022-05-22T10:54:02+02:00</time>
      </trkpt>
      <trkpt lat="46.29013" lon="6.5695">
        <ele>1225</ele>
        <time>2022-05-22T10:54:23+02:00</time>
      </trkpt>
      <trkpt lat="46.2902" lon="6.56957">
        <ele>1230</ele>
        <time>2022-05-22T10:54:37+02:00</time>
      </trkpt>
      <trkpt lat="46.29028" lon="6.56965">
        <ele>1231</ele>
        <time>2022-05-22T10:54:54+02:00</time>
      </trkpt>
      <trkpt lat="46.29034" lon="6.56975">
        <ele>1236</ele>
        <time>2022-05-22T10:55:10+02:00</time>
      </trkpt>
      <trkpt lat="46.29042" lon="6.56982">
        <ele>1235</ele>
        <time>2022-05-22T10:55:34+02:00</time>
      </trkpt>
      <trkpt lat="46.29051" lon="6.56988">
        <ele>1241</ele>
        <time>2022-05-22T10:55:58+02:00</time>
      </trkpt>
      <trkpt lat="46.2906" lon="6.56993">
        <ele>1240</ele>
        <time>2022-05-22T10:56:13+02:00</time>
      </trkpt>
      <trkpt lat="46.29066" lon="6.57002">
        <ele>1242</ele>
        <time>2022-05-22T10:56:28+02:00</time>
      </trkpt>
      <trkpt lat="46.29071" lon="6.57013">
        <ele>1242</ele>
        <time>2022-05-22T10:56:42+02:00</time>
      </trkpt>
      <trkpt lat="46.29075" lon="6.57026">
        <ele>1241</ele>
        <time>2022-05-22T10:56:53+02:00</time>
      </trkpt>
      <trkpt lat="46.2908" lon="6.57037">
        <ele>1241</ele>
        <time>2022-05-22T10:57:05+02:00</time>
      </trkpt>
      <trkpt lat="46.29087" lon="6.57047">
        <ele>1243</ele>
        <time>2022-05-22T10:57:21+02:00</time>
      </trkpt>
      <trkpt lat="46.29096" lon="6.57048">
        <ele>1245</ele>
        <time>2022-05-22T10:57:35+02:00</time>
      </trkpt>
      <trkpt lat="46.29104" lon="6.57041">
        <ele>1247</ele>
        <time>2022-05-22T10:57:54+02:00</time>
      </trkpt>
      <trkpt lat="46.29112" lon="6.57037">
        <ele>1248</ele>
        <time>2022-05-22T10:58:11+02:00</time>
      </trkpt>
      <trkpt lat="46.29121" lon="6.57034">
        <ele>1250</ele>
        <time>2022-05-22T10:58:31+02:00</time>
      </trkpt>
      <trkpt lat="46.2913" lon="6.57039">
        <ele>1253</ele>
        <time>2022-05-22T10:59:45+02:00</time>
      </trkpt>
      <trkpt lat="46.2914" lon="6.5704">
        <ele>1254</ele>
        <time>2022-05-22T10:59:58+02:00</time>
      </trkpt>
      <trkpt lat="46.29149" lon="6.57042">
        <ele>1256</ele>
        <time>2022-05-22T11:00:13+02:00</time>
      </trkpt>
      <trkpt lat="46.29158" lon="6.57045">
        <ele>1256</ele>
        <time>2022-05-22T11:00:30+02:00</time>
      </trkpt>
      <trkpt lat="46.29166" lon="6.57051">
        <ele>1259</ele>
        <time>2022-05-22T11:00:49+02:00</time>
      </trkpt>
      <trkpt lat="46.29175" lon="6.57056">
        <ele>1265</ele>
        <time>2022-05-22T11:01:22+02:00</time>
      </trkpt>
      <trkpt lat="46.29183" lon="6.57062">
        <ele>1267</ele>
        <time>2022-05-22T11:01:42+02:00</time>
      </trkpt>
      <trkpt lat="46.29191" lon="6.57069">
        <ele>1270</ele>
        <time>2022-05-22T11:02:03+02:00</time>
      </trkpt>
      <trkpt lat="46.29198" lon="6.57077">
        <ele>1274</ele>
        <time>2022-05-22T11:02:40+02:00</time>
      </trkpt>
      <trkpt lat="46.29206" lon="6.57084">
        <ele>1278</ele>
        <time>2022-05-22T11:03:11+02:00</time>
      </trkpt>
      <trkpt lat="46.29215" lon="6.57086">
        <ele>1282</ele>
        <time>2022-05-22T11:03:35+02:00</time>
      </trkpt>
      <trkpt lat="46.29225" lon="6.57089">
        <ele>1282</ele>
        <time>2022-05-22T11:03:54+02:00</time>
      </trkpt>
      <trkpt lat="46.29234" lon="6.5709">
        <ele>1285</ele>
        <time>2022-05-22T11:04:17+02:00</time>
      </trkpt>
      <trkpt lat="46.29242" lon="6.57095">
        <ele>1289</ele>
        <time>2022-05-22T11:04:41+02:00</time>
      </trkpt>
      <trkpt lat="46.2925" lon="6.57101">
        <ele>1295</ele>
        <time>2022-05-22T11:05:03+02:00</time>
      </trkpt>
      <trkpt lat="46.29258" lon="6.57108">
        <ele>1295</ele>
        <time>2022-05-22T11:05:26+02:00</time>
      </trkpt>
      <trkpt lat="46.29267" lon="6.57107">
        <ele>1296</ele>
        <time>2022-05-22T11:05:46+02:00</time>
      </trkpt>
      <trkpt lat="46.29275" lon="6.57114">
        <ele>1300</ele>
        <time>2022-05-22T11:06:09+02:00</time>
      </trkpt>
      <trkpt lat="46.29284" lon="6.57117">
        <ele>1305</ele>
        <time>2022-05-22T11:06:36+02:00</time>
      </trkpt>
      <trkpt lat="46.29294" lon="6.57116">
        <ele>1308</ele>
        <time>2022-05-22T11:06:56+02:00</time>
      </trkpt>
      <trkpt lat="46.29303" lon="6.57116">
        <ele>1310</ele>
        <time>2022-05-22T11:07:09+02:00</time>
      </trkpt>
      <trkpt lat="46.29312" lon="6.57117">
        <ele>1310</ele>
        <time>2022-05-22T11:07:30+02:00</time>
      </trkpt>
      <trkpt lat="46.29321" lon="6.57117">
        <ele>1310</ele>
        <time>2022-05-22T11:07:43+02:00</time>
      </trkpt>
      <trkpt lat="46.2933" lon="6.5712">
        <ele>1313</ele>
        <time>2022-05-22T11:08:03+02:00</time>
      </trkpt>
      <trkpt lat="46.2934" lon="6.5712">
        <ele>1314</ele>
        <time>2022-05-22T11:08:24+02:00</time>
      </trkpt>
      <trkpt lat="46.29357" lon="6.57123">
        <ele>1318</ele>
        <time>2022-05-22T11:09:02+02:00</time>
      </trkpt>
      <trkpt lat="46.29366" lon="6.57121">
        <ele>1321</ele>
        <time>2022-05-22T11:09:20+02:00</time>
      </trkpt>
      <trkpt lat="46.29375" lon="6.57124">
        <ele>1321</ele>
        <time>2022-05-22T11:09:32+02:00</time>
      </trkpt>
      <trkpt lat="46.29384" lon="6.57123">
        <ele>1325</ele>
        <time>2022-05-22T11:09:51+02:00</time>
      </trkpt>
      <trkpt lat="46.29393" lon="6.5712">
        <ele>1327</ele>
        <time>2022-05-22T11:10:07+02:00</time>
      </trkpt>
      <trkpt lat="46.29402" lon="6.5712">
        <ele>1331</ele>
        <time>2022-05-22T11:10:24+02:00</time>
      </trkpt>
      <trkpt lat="46.29411" lon="6.57122">
        <ele>1332</ele>
        <time>2022-05-22T11:10:42+02:00</time>
      </trkpt>
      <trkpt lat="46.2942" lon="6.57126">
        <ele>1332</ele>
        <time>2022-05-22T11:10:56+02:00</time>
      </trkpt>
      <trkpt lat="46.29428" lon="6.57132">
        <ele>1337</ele>
        <time>2022-05-22T11:11:13+02:00</time>
      </trkpt>
      <trkpt lat="46.29437" lon="6.57135">
        <ele>1335</ele>
        <time>2022-05-22T11:11:26+02:00</time>
      </trkpt>
      <trkpt lat="46.29446" lon="6.57139">
        <ele>1339</ele>
        <time>2022-05-22T11:11:55+02:00</time>
      </trkpt>
      <trkpt lat="46.29454" lon="6.57146">
        <ele>1343</ele>
        <time>2022-05-22T11:12:16+02:00</time>
      </trkpt>
      <trkpt lat="46.29463" lon="6.57148">
        <ele>1345</ele>
        <time>2022-05-22T11:12:33+02:00</time>
      </trkpt>
      <trkpt lat="46.29472" lon="6.5715">
        <ele>1348</ele>
        <time>2022-05-22T11:12:47+02:00</time>
      </trkpt>
      <trkpt lat="46.29482" lon="6.57148">
        <ele>1348</ele>
        <time>2022-05-22T11:12:58+02:00</time>
      </trkpt>
      <trkpt lat="46.2949" lon="6.57142">
        <ele>1348</ele>
        <time>2022-05-22T11:13:10+02:00</time>
      </trkpt>
      <trkpt lat="46.29499" lon="6.57144">
        <ele>1349</ele>
        <time>2022-05-22T11:15:22+02:00</time>
      </trkpt>
      <trkpt lat="46.29497" lon="6.57131">
        <ele>1350</ele>
        <time>2022-05-22T11:15:43+02:00</time>
      </trkpt>
      <trkpt lat="46.29491" lon="6.5712">
        <ele>1351</ele>
        <time>2022-05-22T11:15:57+02:00</time>
      </trkpt>
      <trkpt lat="46.29487" lon="6.57108">
        <ele>1354</ele>
        <time>2022-05-22T11:16:13+02:00</time>
      </trkpt>
      <trkpt lat="46.29483" lon="6.57095">
        <ele>1359</ele>
        <time>2022-05-22T11:16:29+02:00</time>
      </trkpt>
      <trkpt lat="46.29478" lon="6.5707">
        <ele>1365</ele>
        <time>2022-05-22T11:17:03+02:00</time>
      </trkpt>
      <trkpt lat="46.29474" lon="6.57058">
        <ele>1366</ele>
        <time>2022-05-22T11:17:17+02:00</time>
      </trkpt>
      <trkpt lat="46.29471" lon="6.57032">
        <ele>1368</ele>
        <time>2022-05-22T11:17:52+02:00</time>
      </trkpt>
      <trkpt lat="46.29468" lon="6.57019">
        <ele>1371</ele>
        <time>2022-05-22T11:18:12+02:00</time>
      </trkpt>
      <trkpt lat="46.29472" lon="6.57007">
        <ele>1371</ele>
        <time>2022-05-22T11:18:26+02:00</time>
      </trkpt>
      <trkpt lat="46.29477" lon="6.56995">
        <ele>1369</ele>
        <time>2022-05-22T11:18:40+02:00</time>
      </trkpt>
      <trkpt lat="46.29482" lon="6.56984">
        <ele>1370</ele>
        <time>2022-05-22T11:18:55+02:00</time>
      </trkpt>
      <trkpt lat="46.29486" lon="6.56972">
        <ele>1371</ele>
        <time>2022-05-22T11:19:12+02:00</time>
      </trkpt>
      <trkpt lat="46.29484" lon="6.56959">
        <ele>1371</ele>
        <time>2022-05-22T11:19:40+02:00</time>
      </trkpt>
      <trkpt lat="46.29476" lon="6.56953">
        <ele>1373</ele>
        <time>2022-05-22T11:19:57+02:00</time>
      </trkpt>
      <trkpt lat="46.29467" lon="6.5695">
        <ele>1380</ele>
        <time>2022-05-22T11:20:13+02:00</time>
      </trkpt>
      <trkpt lat="46.29459" lon="6.56943">
        <ele>1381</ele>
        <time>2022-05-22T11:20:29+02:00</time>
      </trkpt>
      <trkpt lat="46.29452" lon="6.56934">
        <ele>1378</ele>
        <time>2022-05-22T11:20:43+02:00</time>
      </trkpt>
      <trkpt lat="46.29445" lon="6.56925">
        <ele>1383</ele>
        <time>2022-05-22T11:21:01+02:00</time>
      </trkpt>
      <trkpt lat="46.29437" lon="6.56918">
        <ele>1386</ele>
        <time>2022-05-22T11:21:18+02:00</time>
      </trkpt>
      <trkpt lat="46.29431" lon="6.56907">
        <ele>1387</ele>
        <time>2022-05-22T11:21:35+02:00</time>
      </trkpt>
      <trkpt lat="46.29426" lon="6.56896">
        <ele>1391</ele>
        <time>2022-05-22T11:21:51+02:00</time>
      </trkpt>
      <trkpt lat="46.29422" lon="6.56884">
        <ele>1392</ele>
        <time>2022-05-22T11:22:07+02:00</time>
      </trkpt>
      <trkpt lat="46.29413" lon="6.56861">
        <ele>1399</ele>
        <time>2022-05-22T11:22:59+02:00</time>
      </trkpt>
      <trkpt lat="46.29407" lon="6.56851">
        <ele>1402</ele>
        <time>2022-05-22T11:23:17+02:00</time>
      </trkpt>
      <trkpt lat="46.294" lon="6.56842">
        <ele>1404</ele>
        <time>2022-05-22T11:23:31+02:00</time>
      </trkpt>
      <trkpt lat="46.29395" lon="6.56831">
        <ele>1404</ele>
        <time>2022-05-22T11:23:50+02:00</time>
      </trkpt>
      <trkpt lat="46.29389" lon="6.5682">
        <ele>1407</ele>
        <time>2022-05-22T11:24:06+02:00</time>
      </trkpt>
      <trkpt lat="46.29381" lon="6.56813">
        <ele>1412</ele>
        <time>2022-05-22T11:24:22+02:00</time>
      </trkpt>
      <trkpt lat="46.29369" lon="6.56792">
        <ele>1411</ele>
        <time>2022-05-22T11:24:46+02:00</time>
      </trkpt>
      <trkpt lat="46.29365" lon="6.5678">
        <ele>1412</ele>
        <time>2022-05-22T11:25:02+02:00</time>
      </trkpt>
      <trkpt lat="46.2936" lon="6.56768">
        <ele>1411</ele>
        <time>2022-05-22T11:25:17+02:00</time>
      </trkpt>
      <trkpt lat="46.29356" lon="6.56756">
        <ele>1412</ele>
        <time>2022-05-22T11:25:32+02:00</time>
      </trkpt>
      <trkpt lat="46.29352" lon="6.56745">
        <ele>1416</ele>
        <time>2022-05-22T11:25:50+02:00</time>
      </trkpt>
      <trkpt lat="46.29347" lon="6.56734">
        <ele>1418</ele>
        <time>2022-05-22T11:26:09+02:00</time>
      </trkpt>
      <trkpt lat="46.29342" lon="6.56723">
        <ele>1422</ele>
        <time>2022-05-22T11:26:27+02:00</time>
      </trkpt>
      <trkpt lat="46.2934" lon="6.56709">
        <ele>1423</ele>
        <time>2022-05-22T11:26:46+02:00</time>
      </trkpt>
      <trkpt lat="46.29339" lon="6.56696">
        <ele>1424</ele>
        <time>2022-05-22T11:27:05+02:00</time>
      </trkpt>
      <trkpt lat="46.29334" lon="6.56685">
        <ele>1425</ele>
        <time>2022-05-22T11:27:24+02:00</time>
      </trkpt>
      <trkpt lat="46.29328" lon="6.56674">
        <ele>1428</ele>
        <time>2022-05-22T11:27:46+02:00</time>
      </trkpt>
      <trkpt lat="46.29323" lon="6.56663">
        <ele>1430</ele>
        <time>2022-05-22T11:28:07+02:00</time>
      </trkpt>
      <trkpt lat="46.2932" lon="6.56651">
        <ele>1433</ele>
        <time>2022-05-22T11:28:29+02:00</time>
      </trkpt>
      <trkpt lat="46.29315" lon="6.56639">
        <ele>1433</ele>
        <time>2022-05-22T11:28:45+02:00</time>
      </trkpt>
      <trkpt lat="46.29308" lon="6.5663">
        <ele>1435</ele>
        <time>2022-05-22T11:29:02+02:00</time>
      </trkpt>
      <trkpt lat="46.29303" lon="6.56619">
        <ele>1439</ele>
        <time>2022-05-22T11:29:21+02:00</time>
      </trkpt>
      <trkpt lat="46.29299" lon="6.56607">
        <ele>1441</ele>
        <time>2022-05-22T11:29:41+02:00</time>
      </trkpt>
      <trkpt lat="46.29293" lon="6.56595">
        <ele>1442</ele>
        <time>2022-05-22T11:29:58+02:00</time>
      </trkpt>
      <trkpt lat="46.29288" lon="6.56584">
        <ele>1444</ele>
        <time>2022-05-22T11:30:14+02:00</time>
      </trkpt>
      <trkpt lat="46.29282" lon="6.56575">
        <ele>1447</ele>
        <time>2022-05-22T11:30:31+02:00</time>
      </trkpt>
      <trkpt lat="46.29276" lon="6.56565">
        <ele>1450</ele>
        <time>2022-05-22T11:30:50+02:00</time>
      </trkpt>
      <trkpt lat="46.2927" lon="6.56553">
        <ele>1452</ele>
        <time>2022-05-22T11:31:07+02:00</time>
      </trkpt>
      <trkpt lat="46.29261" lon="6.56531">
        <ele>1457</ele>
        <time>2022-05-22T11:31:42+02:00</time>
      </trkpt>
      <trkpt lat="46.29255" lon="6.56521">
        <ele>1460</ele>
        <time>2022-05-22T11:32:00+02:00</time>
      </trkpt>
      <trkpt lat="46.29249" lon="6.56511">
        <ele>1464</ele>
        <time>2022-05-22T11:32:18+02:00</time>
      </trkpt>
      <trkpt lat="46.29245" lon="6.56499">
        <ele>1466</ele>
        <time>2022-05-22T11:32:37+02:00</time>
      </trkpt>
      <trkpt lat="46.2924" lon="6.56487">
        <ele>1469</ele>
        <time>2022-05-22T11:33:05+02:00</time>
      </trkpt>
      <trkpt lat="46.29236" lon="6.56475">
        <ele>1471</ele>
        <time>2022-05-22T11:33:18+02:00</time>
      </trkpt>
      <trkpt lat="46.29245" lon="6.56472">
        <ele>1473</ele>
        <time>2022-05-22T11:40:36+02:00</time>
      </trkpt>
      <trkpt lat="46.29252" lon="6.56482">
        <ele>1475</ele>
        <time>2022-05-22T11:40:51+02:00</time>
      </trkpt>
      <trkpt lat="46.29259" lon="6.5649">
        <ele>1478</ele>
        <time>2022-05-22T11:41:10+02:00</time>
      </trkpt>
      <trkpt lat="46.29266" lon="6.56498">
        <ele>1480</ele>
        <time>2022-05-22T11:41:25+02:00</time>
      </trkpt>
      <trkpt lat="46.29274" lon="6.56507">
        <ele>1481</ele>
        <time>2022-05-22T11:41:37+02:00</time>
      </trkpt>
      <trkpt lat="46.29281" lon="6.56516">
        <ele>1482</ele>
        <time>2022-05-22T11:41:52+02:00</time>
      </trkpt>
      <trkpt lat="46.29287" lon="6.56525">
        <ele>1483</ele>
        <time>2022-05-22T11:42:04+02:00</time>
      </trkpt>
      <trkpt lat="46.29294" lon="6.56534">
        <ele>1484</ele>
        <time>2022-05-22T11:42:18+02:00</time>
      </trkpt>
      <trkpt lat="46.29302" lon="6.56541">
        <ele>1485</ele>
        <time>2022-05-22T11:42:31+02:00</time>
      </trkpt>
      <trkpt lat="46.2931" lon="6.56548">
        <ele>1487</ele>
        <time>2022-05-22T11:42:49+02:00</time>
      </trkpt>
      <trkpt lat="46.29317" lon="6.56557">
        <ele>1490</ele>
        <time>2022-05-22T11:43:09+02:00</time>
      </trkpt>
      <trkpt lat="46.29324" lon="6.56566">
        <ele>1493</ele>
        <time>2022-05-22T11:43:29+02:00</time>
      </trkpt>
      <trkpt lat="46.29333" lon="6.5657">
        <ele>1495</ele>
        <time>2022-05-22T11:43:47+02:00</time>
      </trkpt>
      <trkpt lat="46.29341" lon="6.56576">
        <ele>1496</ele>
        <time>2022-05-22T11:44:11+02:00</time>
      </trkpt>
      <trkpt lat="46.29351" lon="6.56579">
        <ele>1498</ele>
        <time>2022-05-22T11:44:25+02:00</time>
      </trkpt>
      <trkpt lat="46.2936" lon="6.56584">
        <ele>1499</ele>
        <time>2022-05-22T11:44:37+02:00</time>
      </trkpt>
      <trkpt lat="46.29369" lon="6.56588">
        <ele>1501</ele>
        <time>2022-05-22T11:44:50+02:00</time>
      </trkpt>
      <trkpt lat="46.29377" lon="6.56592">
        <ele>1503</ele>
        <time>2022-05-22T11:45:03+02:00</time>
      </trkpt>
      <trkpt lat="46.29384" lon="6.56601">
        <ele>1506</ele>
        <time>2022-05-22T11:45:22+02:00</time>
      </trkpt>
      <trkpt lat="46.29393" lon="6.56606">
        <ele>1509</ele>
        <time>2022-05-22T11:45:40+02:00</time>
      </trkpt>
      <trkpt lat="46.29402" lon="6.56609">
        <ele>1511</ele>
        <time>2022-05-22T11:47:23+02:00</time>
      </trkpt>
      <trkpt lat="46.29411" lon="6.56613">
        <ele>1511</ele>
        <time>2022-05-22T11:47:37+02:00</time>
      </trkpt>
      <trkpt lat="46.2942" lon="6.56618">
        <ele>1513</ele>
        <time>2022-05-22T11:47:49+02:00</time>
      </trkpt>
      <trkpt lat="46.29428" lon="6.56623">
        <ele>1514</ele>
        <time>2022-05-22T11:48:01+02:00</time>
      </trkpt>
      <trkpt lat="46.29436" lon="6.56631">
        <ele>1515</ele>
        <time>2022-05-22T11:48:14+02:00</time>
      </trkpt>
      <trkpt lat="46.29444" lon="6.56636">
        <ele>1518</ele>
        <time>2022-05-22T11:48:33+02:00</time>
      </trkpt>
      <trkpt lat="46.29453" lon="6.5664">
        <ele>1517</ele>
        <time>2022-05-22T11:49:09+02:00</time>
      </trkpt>
      <trkpt lat="46.29461" lon="6.56647">
        <ele>1521</ele>
        <time>2022-05-22T11:49:26+02:00</time>
      </trkpt>
      <trkpt lat="46.2947" lon="6.56649">
        <ele>1522</ele>
        <time>2022-05-22T11:49:41+02:00</time>
      </trkpt>
      <trkpt lat="46.29479" lon="6.56655">
        <ele>1524</ele>
        <time>2022-05-22T11:50:00+02:00</time>
      </trkpt>
      <trkpt lat="46.29487" lon="6.56662">
        <ele>1523</ele>
        <time>2022-05-22T11:50:16+02:00</time>
      </trkpt>
      <trkpt lat="46.29494" lon="6.5667">
        <ele>1520</ele>
        <time>2022-05-22T11:50:49+02:00</time>
      </trkpt>
      <trkpt lat="46.29501" lon="6.56679">
        <ele>1519</ele>
        <time>2022-05-22T11:51:08+02:00</time>
      </trkpt>
      <trkpt lat="46.29506" lon="6.5669">
        <ele>1517</ele>
        <time>2022-05-22T11:51:23+02:00</time>
      </trkpt>
      <trkpt lat="46.29514" lon="6.56696">
        <ele>1517</ele>
        <time>2022-05-22T11:51:42+02:00</time>
      </trkpt>
      <trkpt lat="46.29523" lon="6.567">
        <ele>1520</ele>
        <time>2022-05-22T11:51:52+02:00</time>
      </trkpt>
      <trkpt lat="46.29532" lon="6.56699">
        <ele>1523</ele>
        <time>2022-05-22T11:52:04+02:00</time>
      </trkpt>
      <trkpt lat="46.29541" lon="6.56701">
        <ele>1523</ele>
        <time>2022-05-22T11:53:06+02:00</time>
      </trkpt>
      <trkpt lat="46.29548" lon="6.5671">
        <ele>1540</ele>
        <time>2022-05-22T12:09:20+02:00</time>
      </trkpt>
      <trkpt lat="46.29555" lon="6.56718">
        <ele>1528</ele>
        <time>2022-05-22T12:10:37+02:00</time>
      </trkpt>
      <trkpt lat="46.29563" lon="6.56724">
        <ele>1524</ele>
        <time>2022-05-22T12:11:33+02:00</time>
      </trkpt>
      <trkpt lat="46.29571" lon="6.5673">
        <ele>1523</ele>
        <time>2022-05-22T12:11:44+02:00</time>
      </trkpt>
      <trkpt lat="46.29579" lon="6.56737">
        <ele>1521</ele>
        <time>2022-05-22T12:12:15+02:00</time>
      </trkpt>
      <trkpt lat="46.29587" lon="6.56744">
        <ele>1519</ele>
        <time>2022-05-22T12:13:07+02:00</time>
      </trkpt>
      <trkpt lat="46.29595" lon="6.56751">
        <ele>1518</ele>
        <time>2022-05-22T12:13:23+02:00</time>
      </trkpt>
      <trkpt lat="46.29604" lon="6.56757">
        <ele>1518</ele>
        <time>2022-05-22T12:13:39+02:00</time>
      </trkpt>
      <trkpt lat="46.29612" lon="6.56763">
        <ele>1517</ele>
        <time>2022-05-22T12:13:51+02:00</time>
      </trkpt>
      <trkpt lat="46.2962" lon="6.5677">
        <ele>1516</ele>
        <time>2022-05-22T12:14:06+02:00</time>
      </trkpt>
      <trkpt lat="46.29624" lon="6.56782">
        <ele>1513</ele>
        <time>2022-05-22T12:14:31+02:00</time>
      </trkpt>
      <trkpt lat="46.2963" lon="6.56793">
        <ele>1513</ele>
        <time>2022-05-22T12:14:45+02:00</time>
      </trkpt>
      <trkpt lat="46.29639" lon="6.56798">
        <ele>1512</ele>
        <time>2022-05-22T12:15:01+02:00</time>
      </trkpt>
      <trkpt lat="46.29648" lon="6.56801">
        <ele>1510</ele>
        <time>2022-05-22T12:15:11+02:00</time>
      </trkpt>
      <trkpt lat="46.29656" lon="6.56809">
        <ele>1512</ele>
        <time>2022-05-22T12:15:27+02:00</time>
      </trkpt>
      <trkpt lat="46.29664" lon="6.56816">
        <ele>1512</ele>
        <time>2022-05-22T12:15:38+02:00</time>
      </trkpt>
      <trkpt lat="46.29672" lon="6.56824">
        <ele>1511</ele>
        <time>2022-05-22T12:15:48+02:00</time>
      </trkpt>
      <trkpt lat="46.29679" lon="6.56834">
        <ele>1512</ele>
        <time>2022-05-22T12:15:59+02:00</time>
      </trkpt>
      <trkpt lat="46.29686" lon="6.56842">
        <ele>1513</ele>
        <time>2022-05-22T12:16:14+02:00</time>
      </trkpt>
      <trkpt lat="46.29693" lon="6.56851">
        <ele>1515</ele>
        <time>2022-05-22T12:16:27+02:00</time>
      </trkpt>
      <trkpt lat="46.297" lon="6.56858">
        <ele>1517</ele>
        <time>2022-05-22T12:16:45+02:00</time>
      </trkpt>
      <trkpt lat="46.29707" lon="6.56866">
        <ele>1519</ele>
        <time>2022-05-22T12:17:03+02:00</time>
      </trkpt>
      <trkpt lat="46.2972" lon="6.56885">
        <ele>1523</ele>
        <time>2022-05-22T12:17:35+02:00</time>
      </trkpt>
      <trkpt lat="46.2973" lon="6.56883">
        <ele>1528</ele>
        <time>2022-05-22T12:18:04+02:00</time>
      </trkpt>
      <trkpt lat="46.29737" lon="6.56891">
        <ele>1532</ele>
        <time>2022-05-22T12:18:25+02:00</time>
      </trkpt>
      <trkpt lat="46.29746" lon="6.56896">
        <ele>1536</ele>
        <time>2022-05-22T12:18:49+02:00</time>
      </trkpt>
      <trkpt lat="46.29753" lon="6.56904">
        <ele>1537</ele>
        <time>2022-05-22T12:19:03+02:00</time>
      </trkpt>
      <trkpt lat="46.29762" lon="6.56909">
        <ele>1541</ele>
        <time>2022-05-22T12:19:24+02:00</time>
      </trkpt>
      <trkpt lat="46.2977" lon="6.56915">
        <ele>1545</ele>
        <time>2022-05-22T12:19:39+02:00</time>
      </trkpt>
      <trkpt lat="46.2978" lon="6.56914">
        <ele>1546</ele>
        <time>2022-05-22T12:19:53+02:00</time>
      </trkpt>
      <trkpt lat="46.29789" lon="6.56912">
        <ele>1547</ele>
        <time>2022-05-22T12:20:06+02:00</time>
      </trkpt>
      <trkpt lat="46.29798" lon="6.56915">
        <ele>1548</ele>
        <time>2022-05-22T12:20:16+02:00</time>
      </trkpt>
      <trkpt lat="46.29807" lon="6.56916">
        <ele>1550</ele>
        <time>2022-05-22T12:20:29+02:00</time>
      </trkpt>
      <trkpt lat="46.29816" lon="6.56921">
        <ele>1550</ele>
        <time>2022-05-22T12:21:09+02:00</time>
      </trkpt>
      <trkpt lat="46.29824" lon="6.56928">
        <ele>1548</ele>
        <time>2022-05-22T12:21:22+02:00</time>
      </trkpt>
      <trkpt lat="46.29826" lon="6.56941">
        <ele>1543</ele>
        <time>2022-05-22T12:21:46+02:00</time>
      </trkpt>
      <trkpt lat="46.29828" lon="6.56955">
        <ele>1538</ele>
        <time>2022-05-22T12:22:03+02:00</time>
      </trkpt>
      <trkpt lat="46.29832" lon="6.56967">
        <ele>1532</ele>
        <time>2022-05-22T12:22:26+02:00</time>
      </trkpt>
      <trkpt lat="46.29838" lon="6.56978">
        <ele>1528</ele>
        <time>2022-05-22T12:22:49+02:00</time>
      </trkpt>
      <trkpt lat="46.29841" lon="6.5699">
        <ele>1522</ele>
        <time>2022-05-22T12:23:20+02:00</time>
      </trkpt>
      <trkpt lat="46.2984" lon="6.57015">
        <ele>1513</ele>
        <time>2022-05-22T12:28:27+02:00</time>
      </trkpt>
      <trkpt lat="46.29843" lon="6.57029">
        <ele>1510</ele>
        <time>2022-05-22T12:28:41+02:00</time>
      </trkpt>
      <trkpt lat="46.29845" lon="6.57042">
        <ele>1508</ele>
        <time>2022-05-22T12:28:56+02:00</time>
      </trkpt>
      <trkpt lat="46.29847" lon="6.57057">
        <ele>1509</ele>
        <time>2022-05-22T12:29:06+02:00</time>
      </trkpt>
      <trkpt lat="46.29848" lon="6.57071">
        <ele>1507</ele>
        <time>2022-05-22T12:29:13+02:00</time>
      </trkpt>
      <trkpt lat="46.29848" lon="6.57084">
        <ele>1507</ele>
        <time>2022-05-22T12:29:23+02:00</time>
      </trkpt>
      <trkpt lat="46.29851" lon="6.57098">
        <ele>1511</ele>
        <time>2022-05-22T12:29:39+02:00</time>
      </trkpt>
      <trkpt lat="46.29856" lon="6.57109">
        <ele>1511</ele>
        <time>2022-05-22T12:29:51+02:00</time>
      </trkpt>
      <trkpt lat="46.2986" lon="6.57122">
        <ele>1510</ele>
        <time>2022-05-22T12:29:58+02:00</time>
      </trkpt>
      <trkpt lat="46.29865" lon="6.57133">
        <ele>1512</ele>
        <time>2022-05-22T12:30:11+02:00</time>
      </trkpt>
      <trkpt lat="46.29871" lon="6.57144">
        <ele>1510</ele>
        <time>2022-05-22T12:30:21+02:00</time>
      </trkpt>
      <trkpt lat="46.29878" lon="6.57153">
        <ele>1511</ele>
        <time>2022-05-22T12:30:32+02:00</time>
      </trkpt>
      <trkpt lat="46.29885" lon="6.57163">
        <ele>1514</ele>
        <time>2022-05-22T12:30:43+02:00</time>
      </trkpt>
      <trkpt lat="46.29889" lon="6.57174">
        <ele>1515</ele>
        <time>2022-05-22T12:30:53+02:00</time>
      </trkpt>
      <trkpt lat="46.29893" lon="6.57187">
        <ele>1515</ele>
        <time>2022-05-22T12:31:04+02:00</time>
      </trkpt>
      <trkpt lat="46.29897" lon="6.572">
        <ele>1514</ele>
        <time>2022-05-22T12:31:13+02:00</time>
      </trkpt>
      <trkpt lat="46.29899" lon="6.57214">
        <ele>1514</ele>
        <time>2022-05-22T12:31:28+02:00</time>
      </trkpt>
      <trkpt lat="46.29905" lon="6.57224">
        <ele>1514</ele>
        <time>2022-05-22T12:31:37+02:00</time>
      </trkpt>
      <trkpt lat="46.29907" lon="6.57237">
        <ele>1513</ele>
        <time>2022-05-22T12:31:46+02:00</time>
      </trkpt>
      <trkpt lat="46.29907" lon="6.57251">
        <ele>1514</ele>
        <time>2022-05-22T12:31:53+02:00</time>
      </trkpt>
      <trkpt lat="46.29909" lon="6.57265">
        <ele>1516</ele>
        <time>2022-05-22T12:32:03+02:00</time>
      </trkpt>
      <trkpt lat="46.2991" lon="6.57278">
        <ele>1518</ele>
        <time>2022-05-22T12:32:16+02:00</time>
      </trkpt>
      <trkpt lat="46.29912" lon="6.57291">
        <ele>1521</ele>
        <time>2022-05-22T12:32:39+02:00</time>
      </trkpt>
      <trkpt lat="46.29918" lon="6.57302">
        <ele>1522</ele>
        <time>2022-05-22T12:33:00+02:00</time>
      </trkpt>
      <trkpt lat="46.29922" lon="6.57314">
        <ele>1522</ele>
        <time>2022-05-22T12:33:15+02:00</time>
      </trkpt>
      <trkpt lat="46.29925" lon="6.57328">
        <ele>1521</ele>
        <time>2022-05-22T12:33:25+02:00</time>
      </trkpt>
      <trkpt lat="46.29932" lon="6.57338">
        <ele>1521</ele>
        <time>2022-05-22T12:33:35+02:00</time>
      </trkpt>
      <trkpt lat="46.29938" lon="6.57348">
        <ele>1519</ele>
        <time>2022-05-22T12:33:45+02:00</time>
      </trkpt>
      <trkpt lat="46.29944" lon="6.57358">
        <ele>1519</ele>
        <time>2022-05-22T12:33:54+02:00</time>
      </trkpt>
      <trkpt lat="46.29949" lon="6.5737">
        <ele>1519</ele>
        <time>2022-05-22T12:34:03+02:00</time>
      </trkpt>
      <trkpt lat="46.29951" lon="6.57383">
        <ele>1519</ele>
        <time>2022-05-22T12:34:13+02:00</time>
      </trkpt>
      <trkpt lat="46.29954" lon="6.57397">
        <ele>1519</ele>
        <time>2022-05-22T12:34:24+02:00</time>
      </trkpt>
      <trkpt lat="46.29952" lon="6.5741">
        <ele>1520</ele>
        <time>2022-05-22T12:34:36+02:00</time>
      </trkpt>
      <trkpt lat="46.29942" lon="6.57432">
        <ele>1521</ele>
        <time>2022-05-22T12:35:00+02:00</time>
      </trkpt>
      <trkpt lat="46.29937" lon="6.57443">
        <ele>1522</ele>
        <time>2022-05-22T12:35:40+02:00</time>
      </trkpt>
      <trkpt lat="46.29932" lon="6.57454">
        <ele>1523</ele>
        <time>2022-05-22T12:35:55+02:00</time>
      </trkpt>
      <trkpt lat="46.29928" lon="6.57466">
        <ele>1525</ele>
        <time>2022-05-22T12:36:09+02:00</time>
      </trkpt>
      <trkpt lat="46.29923" lon="6.57477">
        <ele>1527</ele>
        <time>2022-05-22T12:36:24+02:00</time>
      </trkpt>
      <trkpt lat="46.29918" lon="6.57488">
        <ele>1530</ele>
        <time>2022-05-22T12:36:47+02:00</time>
      </trkpt>
      <trkpt lat="46.2991" lon="6.57494">
        <ele>1532</ele>
        <time>2022-05-22T12:37:01+02:00</time>
      </trkpt>
      <trkpt lat="46.29902" lon="6.57502">
        <ele>1534</ele>
        <time>2022-05-22T12:37:16+02:00</time>
      </trkpt>
      <trkpt lat="46.29894" lon="6.57508">
        <ele>1535</ele>
        <time>2022-05-22T12:37:31+02:00</time>
      </trkpt>
      <trkpt lat="46.29885" lon="6.57511">
        <ele>1536</ele>
        <time>2022-05-22T12:37:45+02:00</time>
      </trkpt>
      <trkpt lat="46.29878" lon="6.5752">
        <ele>1539</ele>
        <time>2022-05-22T12:38:03+02:00</time>
      </trkpt>
      <trkpt lat="46.29871" lon="6.5753">
        <ele>1540</ele>
        <time>2022-05-22T12:38:43+02:00</time>
      </trkpt>
      <trkpt lat="46.29864" lon="6.57538">
        <ele>1542</ele>
        <time>2022-05-22T12:39:01+02:00</time>
      </trkpt>
      <trkpt lat="46.29857" lon="6.57547">
        <ele>1544</ele>
        <time>2022-05-22T12:39:17+02:00</time>
      </trkpt>
      <trkpt lat="46.2985" lon="6.57556">
        <ele>1547</ele>
        <time>2022-05-22T12:39:35+02:00</time>
      </trkpt>
      <trkpt lat="46.29841" lon="6.57558">
        <ele>1548</ele>
        <time>2022-05-22T12:39:52+02:00</time>
      </trkpt>
      <trkpt lat="46.29832" lon="6.57561">
        <ele>1551</ele>
        <time>2022-05-22T12:40:11+02:00</time>
      </trkpt>
      <trkpt lat="46.29823" lon="6.57563">
        <ele>1552</ele>
        <time>2022-05-22T12:40:29+02:00</time>
      </trkpt>
      <trkpt lat="46.29815" lon="6.5757">
        <ele>1554</ele>
        <time>2022-05-22T12:40:47+02:00</time>
      </trkpt>
      <trkpt lat="46.29807" lon="6.57577">
        <ele>1556</ele>
        <time>2022-05-22T12:41:04+02:00</time>
      </trkpt>
      <trkpt lat="46.29798" lon="6.57582">
        <ele>1554</ele>
        <time>2022-05-22T12:41:19+02:00</time>
      </trkpt>
      <trkpt lat="46.29791" lon="6.5759">
        <ele>1556</ele>
        <time>2022-05-22T12:41:38+02:00</time>
      </trkpt>
      <trkpt lat="46.29784" lon="6.57598">
        <ele>1561</ele>
        <time>2022-05-22T12:42:06+02:00</time>
      </trkpt>
      <trkpt lat="46.29771" lon="6.57617">
        <ele>1568</ele>
        <time>2022-05-22T12:43:09+02:00</time>
      </trkpt>
      <trkpt lat="46.29765" lon="6.57626">
        <ele>1572</ele>
        <time>2022-05-22T12:44:14+02:00</time>
      </trkpt>
      <trkpt lat="46.29761" lon="6.57638">
        <ele>1574</ele>
        <time>2022-05-22T12:44:54+02:00</time>
      </trkpt>
      <trkpt lat="46.29753" lon="6.57645">
        <ele>1581</ele>
        <time>2022-05-22T12:45:43+02:00</time>
      </trkpt>
      <trkpt lat="46.29745" lon="6.57639">
        <ele>1584</ele>
        <time>2022-05-22T12:46:22+02:00</time>
      </trkpt>
      <trkpt lat="46.29736" lon="6.57633">
        <ele>1584</ele>
        <time>2022-05-22T12:49:05+02:00</time>
      </trkpt>
      <trkpt lat="46.29727" lon="6.57633">
        <ele>1584</ele>
        <time>2022-05-22T12:49:17+02:00</time>
      </trkpt>
      <trkpt lat="46.29718" lon="6.57633">
        <ele>1587</ele>
        <time>2022-05-22T12:49:33+02:00</time>
      </trkpt>
      <trkpt lat="46.29709" lon="6.57629">
        <ele>1590</ele>
        <time>2022-05-22T12:50:00+02:00</time>
      </trkpt>
      <trkpt lat="46.297" lon="6.57625">
        <ele>1595</ele>
        <time>2022-05-22T12:51:07+02:00</time>
      </trkpt>
      <trkpt lat="46.29692" lon="6.57628">
        <ele>1602</ele>
        <time>2022-05-22T12:51:59+02:00</time>
      </trkpt>
      <trkpt lat="46.29683" lon="6.57629">
        <ele>1611</ele>
        <time>2022-05-22T12:53:12+02:00</time>
      </trkpt>
      <trkpt lat="46.29692" lon="6.57632">
        <ele>1624</ele>
        <time>2022-05-22T13:01:33+02:00</time>
      </trkpt>
      <trkpt lat="46.29682" lon="6.57635">
        <ele>1612</ele>
        <time>2022-05-22T13:03:36+02:00</time>
      </trkpt>
      <trkpt lat="46.29674" lon="6.57643">
        <ele>1612</ele>
        <time>2022-05-22T13:03:46+02:00</time>
      </trkpt>
      <trkpt lat="46.29667" lon="6.57653">
        <ele>1613</ele>
        <time>2022-05-22T13:03:58+02:00</time>
      </trkpt>
      <trkpt lat="46.29659" lon="6.57659">
        <ele>1613</ele>
        <time>2022-05-22T13:04:11+02:00</time>
      </trkpt>
      <trkpt lat="46.29651" lon="6.57666">
        <ele>1614</ele>
        <time>2022-05-22T13:04:22+02:00</time>
      </trkpt>
      <trkpt lat="46.29645" lon="6.57677">
        <ele>1615</ele>
        <time>2022-05-22T13:04:36+02:00</time>
      </trkpt>
      <trkpt lat="46.29638" lon="6.57685">
        <ele>1616</ele>
        <time>2022-05-22T13:04:51+02:00</time>
      </trkpt>
      <trkpt lat="46.29629" lon="6.57686">
        <ele>1617</ele>
        <time>2022-05-22T13:05:06+02:00</time>
      </trkpt>
      <trkpt lat="46.2962" lon="6.57691">
        <ele>1618</ele>
        <time>2022-05-22T13:05:23+02:00</time>
      </trkpt>
      <trkpt lat="46.29611" lon="6.57697">
        <ele>1618</ele>
        <time>2022-05-22T13:05:49+02:00</time>
      </trkpt>
      <trkpt lat="46.29602" lon="6.577">
        <ele>1620</ele>
        <time>2022-05-22T13:06:03+02:00</time>
      </trkpt>
      <trkpt lat="46.29594" lon="6.57706">
        <ele>1623</ele>
        <time>2022-05-22T13:06:34+02:00</time>
      </trkpt>
      <trkpt lat="46.29586" lon="6.57701">
        <ele>1622</ele>
        <time>2022-05-22T13:07:00+02:00</time>
      </trkpt>
      <trkpt lat="46.29577" lon="6.57699">
        <ele>1625</ele>
        <time>2022-05-22T13:07:22+02:00</time>
      </trkpt>
      <trkpt lat="46.29567" lon="6.57695">
        <ele>1625</ele>
        <time>2022-05-22T13:07:51+02:00</time>
      </trkpt>
      <trkpt lat="46.2956" lon="6.57704">
        <ele>1627</ele>
        <time>2022-05-22T13:09:00+02:00</time>
      </trkpt>
      <trkpt lat="46.29558" lon="6.57717">
        <ele>1626</ele>
        <time>2022-05-22T13:09:21+02:00</time>
      </trkpt>
      <trkpt lat="46.29553" lon="6.57728">
        <ele>1626</ele>
        <time>2022-05-22T13:09:36+02:00</time>
      </trkpt>
      <trkpt lat="46.29547" lon="6.57738">
        <ele>1623</ele>
        <time>2022-05-22T13:09:55+02:00</time>
      </trkpt>
      <trkpt lat="46.29542" lon="6.57749">
        <ele>1620</ele>
        <time>2022-05-22T13:10:14+02:00</time>
      </trkpt>
      <trkpt lat="46.2954" lon="6.57762">
        <ele>1618</ele>
        <time>2022-05-22T13:10:45+02:00</time>
      </trkpt>
      <trkpt lat="46.29536" lon="6.57774">
        <ele>1616</ele>
        <time>2022-05-22T13:11:00+02:00</time>
      </trkpt>
      <trkpt lat="46.29537" lon="6.57787">
        <ele>1614</ele>
        <time>2022-05-22T13:11:14+02:00</time>
      </trkpt>
      <trkpt lat="46.2954" lon="6.578">
        <ele>1612</ele>
        <time>2022-05-22T13:11:30+02:00</time>
      </trkpt>
      <trkpt lat="46.29542" lon="6.57814">
        <ele>1611</ele>
        <time>2022-05-22T13:11:43+02:00</time>
      </trkpt>
      <trkpt lat="46.29544" lon="6.57827">
        <ele>1613</ele>
        <time>2022-05-22T13:11:59+02:00</time>
      </trkpt>
      <trkpt lat="46.29544" lon="6.57841">
        <ele>1613</ele>
        <time>2022-05-22T13:12:11+02:00</time>
      </trkpt>
      <trkpt lat="46.29544" lon="6.57854">
        <ele>1610</ele>
        <time>2022-05-22T13:12:25+02:00</time>
      </trkpt>
      <trkpt lat="46.29543" lon="6.57868">
        <ele>1611</ele>
        <time>2022-05-22T13:12:34+02:00</time>
      </trkpt>
      <trkpt lat="46.2954" lon="6.5788">
        <ele>1611</ele>
        <time>2022-05-22T13:12:47+02:00</time>
      </trkpt>
      <trkpt lat="46.29541" lon="6.57893">
        <ele>1611</ele>
        <time>2022-05-22T13:13:03+02:00</time>
      </trkpt>
      <trkpt lat="46.29541" lon="6.57907">
        <ele>1611</ele>
        <time>2022-05-22T13:13:12+02:00</time>
      </trkpt>
      <trkpt lat="46.2954" lon="6.5792">
        <ele>1611</ele>
        <time>2022-05-22T13:13:21+02:00</time>
      </trkpt>
      <trkpt lat="46.29542" lon="6.57934">
        <ele>1610</ele>
        <time>2022-05-22T13:13:28+02:00</time>
      </trkpt>
      <trkpt lat="46.29545" lon="6.57947">
        <ele>1610</ele>
        <time>2022-05-22T13:13:37+02:00</time>
      </trkpt>
      <trkpt lat="46.29547" lon="6.5796">
        <ele>1610</ele>
        <time>2022-05-22T13:13:47+02:00</time>
      </trkpt>
      <trkpt lat="46.29538" lon="6.57963">
        <ele>1610</ele>
        <time>2022-05-22T13:14:02+02:00</time>
      </trkpt>
      <trkpt lat="46.29529" lon="6.57966">
        <ele>1610</ele>
        <time>2022-05-22T13:14:16+02:00</time>
      </trkpt>
      <trkpt lat="46.29519" lon="6.57965">
        <ele>1611</ele>
        <time>2022-05-22T13:14:31+02:00</time>
      </trkpt>
      <trkpt lat="46.2951" lon="6.57963">
        <ele>1613</ele>
        <time>2022-05-22T13:14:44+02:00</time>
      </trkpt>
      <trkpt lat="46.29501" lon="6.57962">
        <ele>1614</ele>
        <time>2022-05-22T13:15:43+02:00</time>
      </trkpt>
      <trkpt lat="46.29493" lon="6.57954">
        <ele>1616</ele>
        <time>2022-05-22T13:15:55+02:00</time>
      </trkpt>
      <trkpt lat="46.29485" lon="6.57949">
        <ele>1614</ele>
        <time>2022-05-22T13:16:04+02:00</time>
      </trkpt>
      <trkpt lat="46.29476" lon="6.57943">
        <ele>1614</ele>
        <time>2022-05-22T13:16:15+02:00</time>
      </trkpt>
      <trkpt lat="46.29467" lon="6.57939">
        <ele>1617</ele>
        <time>2022-05-22T13:16:27+02:00</time>
      </trkpt>
      <trkpt lat="46.29458" lon="6.57937">
        <ele>1618</ele>
        <time>2022-05-22T13:16:39+02:00</time>
      </trkpt>
      <trkpt lat="46.29449" lon="6.57934">
        <ele>1617</ele>
        <time>2022-05-22T13:16:49+02:00</time>
      </trkpt>
      <trkpt lat="46.29439" lon="6.57931">
        <ele>1617</ele>
        <time>2022-05-22T13:17:00+02:00</time>
      </trkpt>
      <trkpt lat="46.2943" lon="6.5793">
        <ele>1617</ele>
        <time>2022-05-22T13:17:10+02:00</time>
      </trkpt>
      <trkpt lat="46.29421" lon="6.57931">
        <ele>1617</ele>
        <time>2022-05-22T13:17:20+02:00</time>
      </trkpt>
      <trkpt lat="46.29411" lon="6.5793">
        <ele>1616</ele>
        <time>2022-05-22T13:17:33+02:00</time>
      </trkpt>
      <trkpt lat="46.29402" lon="6.57927">
        <ele>1614</ele>
        <time>2022-05-22T13:17:45+02:00</time>
      </trkpt>
      <trkpt lat="46.29394" lon="6.57921">
        <ele>1615</ele>
        <time>2022-05-22T13:17:57+02:00</time>
      </trkpt>
      <trkpt lat="46.29384" lon="6.57919">
        <ele>1614</ele>
        <time>2022-05-22T13:18:09+02:00</time>
      </trkpt>
      <trkpt lat="46.29374" lon="6.57918">
        <ele>1614</ele>
        <time>2022-05-22T13:18:24+02:00</time>
      </trkpt>
      <trkpt lat="46.29365" lon="6.57921">
        <ele>1616</ele>
        <time>2022-05-22T13:18:48+02:00</time>
      </trkpt>
      <trkpt lat="46.29355" lon="6.57922">
        <ele>1617</ele>
        <time>2022-05-22T13:18:59+02:00</time>
      </trkpt>
      <trkpt lat="46.29346" lon="6.57921">
        <ele>1617</ele>
        <time>2022-05-22T13:19:13+02:00</time>
      </trkpt>
      <trkpt lat="46.29336" lon="6.5792">
        <ele>1618</ele>
        <time>2022-05-22T13:19:23+02:00</time>
      </trkpt>
      <trkpt lat="46.29327" lon="6.57919">
        <ele>1618</ele>
        <time>2022-05-22T13:19:38+02:00</time>
      </trkpt>
      <trkpt lat="46.29317" lon="6.57916">
        <ele>1618</ele>
        <time>2022-05-22T13:20:02+02:00</time>
      </trkpt>
      <trkpt lat="46.29308" lon="6.57916">
        <ele>1619</ele>
        <time>2022-05-22T13:20:12+02:00</time>
      </trkpt>
      <trkpt lat="46.29298" lon="6.57919">
        <ele>1620</ele>
        <time>2022-05-22T13:20:24+02:00</time>
      </trkpt>
      <trkpt lat="46.29291" lon="6.57928">
        <ele>1620</ele>
        <time>2022-05-22T13:20:36+02:00</time>
      </trkpt>
      <trkpt lat="46.29292" lon="6.57942">
        <ele>1621</ele>
        <time>2022-05-22T13:20:46+02:00</time>
      </trkpt>
      <trkpt lat="46.2929" lon="6.57955">
        <ele>1621</ele>
        <time>2022-05-22T13:20:56+02:00</time>
      </trkpt>
      <trkpt lat="46.29288" lon="6.57968">
        <ele>1621</ele>
        <time>2022-05-22T13:21:05+02:00</time>
      </trkpt>
      <trkpt lat="46.29285" lon="6.57981">
        <ele>1620</ele>
        <time>2022-05-22T13:21:20+02:00</time>
      </trkpt>
      <trkpt lat="46.2929" lon="6.57993">
        <ele>1622</ele>
        <time>2022-05-22T13:21:35+02:00</time>
      </trkpt>
      <trkpt lat="46.29297" lon="6.57984">
        <ele>1624</ele>
        <time>2022-05-22T13:23:01+02:00</time>
      </trkpt>
      <trkpt lat="46.29306" lon="6.57979">
        <ele>1626</ele>
        <time>2022-05-22T13:23:12+02:00</time>
      </trkpt>
      <trkpt lat="46.2931" lon="6.57966">
        <ele>1627</ele>
        <time>2022-05-22T13:23:46+02:00</time>
      </trkpt>
      <trkpt lat="46.29308" lon="6.57953">
        <ele>1628</ele>
        <time>2022-05-22T13:23:57+02:00</time>
      </trkpt>
      <trkpt lat="46.29309" lon="6.57939">
        <ele>1630</ele>
        <time>2022-05-22T13:24:12+02:00</time>
      </trkpt>
      <trkpt lat="46.29318" lon="6.5794">
        <ele>1634</ele>
        <time>2022-05-22T13:24:35+02:00</time>
      </trkpt>
      <trkpt lat="46.29325" lon="6.57949">
        <ele>1638</ele>
        <time>2022-05-22T13:24:54+02:00</time>
      </trkpt>
      <trkpt lat="46.29332" lon="6.57957">
        <ele>1641</ele>
        <time>2022-05-22T13:25:14+02:00</time>
      </trkpt>
      <trkpt lat="46.29341" lon="6.57964">
        <ele>1642</ele>
        <time>2022-05-22T13:25:38+02:00</time>
      </trkpt>
      <trkpt lat="46.2935" lon="6.57966">
        <ele>1646</ele>
        <time>2022-05-22T13:25:57+02:00</time>
      </trkpt>
      <trkpt lat="46.29358" lon="6.57972">
        <ele>1650</ele>
        <time>2022-05-22T13:26:18+02:00</time>
      </trkpt>
      <trkpt lat="46.29365" lon="6.5798">
        <ele>1653</ele>
        <time>2022-05-22T13:26:39+02:00</time>
      </trkpt>
      <trkpt lat="46.29374" lon="6.57985">
        <ele>1655</ele>
        <time>2022-05-22T13:26:56+02:00</time>
      </trkpt>
      <trkpt lat="46.29382" lon="6.57991">
        <ele>1658</ele>
        <time>2022-05-22T13:27:20+02:00</time>
      </trkpt>
      <trkpt lat="46.29391" lon="6.57995">
        <ele>1660</ele>
        <time>2022-05-22T13:27:35+02:00</time>
      </trkpt>
      <trkpt lat="46.29399" lon="6.58002">
        <ele>1663</ele>
        <time>2022-05-22T13:27:48+02:00</time>
      </trkpt>
      <trkpt lat="46.29408" lon="6.58006">
        <ele>1664</ele>
        <time>2022-05-22T13:28:01+02:00</time>
      </trkpt>
      <trkpt lat="46.29417" lon="6.58013">
        <ele>1664</ele>
        <time>2022-05-22T13:30:29+02:00</time>
      </trkpt>
      <trkpt lat="46.29427" lon="6.58017">
        <ele>1665</ele>
        <time>2022-05-22T13:30:40+02:00</time>
      </trkpt>
      <trkpt lat="46.29435" lon="6.58023">
        <ele>1664</ele>
        <time>2022-05-22T13:30:50+02:00</time>
      </trkpt>
      <trkpt lat="46.29444" lon="6.58028">
        <ele>1664</ele>
        <time>2022-05-22T13:30:58+02:00</time>
      </trkpt>
      <trkpt lat="46.29452" lon="6.58033">
        <ele>1664</ele>
        <time>2022-05-22T13:31:09+02:00</time>
      </trkpt>
      <trkpt lat="46.29461" lon="6.58037">
        <ele>1665</ele>
        <time>2022-05-22T13:31:20+02:00</time>
      </trkpt>
      <trkpt lat="46.2947" lon="6.58044">
        <ele>1665</ele>
        <time>2022-05-22T13:31:30+02:00</time>
      </trkpt>
      <trkpt lat="46.29477" lon="6.58053">
        <ele>1665</ele>
        <time>2022-05-22T13:31:38+02:00</time>
      </trkpt>
      <trkpt lat="46.29484" lon="6.58062">
        <ele>1665</ele>
        <time>2022-05-22T13:31:46+02:00</time>
      </trkpt>
      <trkpt lat="46.2949" lon="6.58072">
        <ele>1666</ele>
        <time>2022-05-22T13:32:19+02:00</time>
      </trkpt>
      <trkpt lat="46.29498" lon="6.58079">
        <ele>1666</ele>
        <time>2022-05-22T13:32:31+02:00</time>
      </trkpt>
      <trkpt lat="46.29506" lon="6.58086">
        <ele>1665</ele>
        <time>2022-05-22T13:32:40+02:00</time>
      </trkpt>
      <trkpt lat="46.29515" lon="6.58093">
        <ele>1666</ele>
        <time>2022-05-22T13:32:51+02:00</time>
      </trkpt>
      <trkpt lat="46.29523" lon="6.58099">
        <ele>1666</ele>
        <time>2022-05-22T13:33:01+02:00</time>
      </trkpt>
      <trkpt lat="46.29531" lon="6.58105">
        <ele>1667</ele>
        <time>2022-05-22T13:33:11+02:00</time>
      </trkpt>
      <trkpt lat="46.29538" lon="6.58114">
        <ele>1668</ele>
        <time>2022-05-22T13:33:23+02:00</time>
      </trkpt>
      <trkpt lat="46.29546" lon="6.5812">
        <ele>1668</ele>
        <time>2022-05-22T13:33:43+02:00</time>
      </trkpt>
      <trkpt lat="46.29555" lon="6.58126">
        <ele>1666</ele>
        <time>2022-05-22T13:34:00+02:00</time>
      </trkpt>
      <trkpt lat="46.29563" lon="6.58133">
        <ele>1666</ele>
        <time>2022-05-22T13:34:08+02:00</time>
      </trkpt>
      <trkpt lat="46.29555" lon="6.58127">
        <ele>1665</ele>
        <time>2022-05-22T13:34:33+02:00</time>
      </trkpt>
      <trkpt lat="46.29563" lon="6.58133">
        <ele>1666</ele>
        <time>2022-05-22T13:36:19+02:00</time>
      </trkpt>
      <trkpt lat="46.29573" lon="6.58137">
        <ele>1668</ele>
        <time>2022-05-22T13:36:26+02:00</time>
      </trkpt>
      <trkpt lat="46.29583" lon="6.58138">
        <ele>1666</ele>
        <time>2022-05-22T13:36:34+02:00</time>
      </trkpt>
      <trkpt lat="46.29592" lon="6.58138">
        <ele>1667</ele>
        <time>2022-05-22T13:36:42+02:00</time>
      </trkpt>
      <trkpt lat="46.29601" lon="6.58138">
        <ele>1668</ele>
        <time>2022-05-22T13:36:51+02:00</time>
      </trkpt>
      <trkpt lat="46.2961" lon="6.5814">
        <ele>1670</ele>
        <time>2022-05-22T13:37:01+02:00</time>
      </trkpt>
      <trkpt lat="46.29619" lon="6.58143">
        <ele>1671</ele>
        <time>2022-05-22T13:37:10+02:00</time>
      </trkpt>
      <trkpt lat="46.29628" lon="6.58145">
        <ele>1672</ele>
        <time>2022-05-22T13:37:20+02:00</time>
      </trkpt>
      <trkpt lat="46.29637" lon="6.58146">
        <ele>1674</ele>
        <time>2022-05-22T13:37:31+02:00</time>
      </trkpt>
      <trkpt lat="46.29647" lon="6.58146">
        <ele>1675</ele>
        <time>2022-05-22T13:37:44+02:00</time>
      </trkpt>
      <trkpt lat="46.29656" lon="6.58144">
        <ele>1677</ele>
        <time>2022-05-22T13:37:57+02:00</time>
      </trkpt>
      <trkpt lat="46.29665" lon="6.58144">
        <ele>1679</ele>
        <time>2022-05-22T13:38:10+02:00</time>
      </trkpt>
      <trkpt lat="46.29674" lon="6.58142">
        <ele>1682</ele>
        <time>2022-05-22T13:38:25+02:00</time>
      </trkpt>
      <trkpt lat="46.29683" lon="6.5814">
        <ele>1684</ele>
        <time>2022-05-22T13:38:41+02:00</time>
      </trkpt>
      <trkpt lat="46.29692" lon="6.58135">
        <ele>1687</ele>
        <time>2022-05-22T13:38:58+02:00</time>
      </trkpt>
      <trkpt lat="46.297" lon="6.58128">
        <ele>1689</ele>
        <time>2022-05-22T13:39:14+02:00</time>
      </trkpt>
      <trkpt lat="46.29709" lon="6.58127">
        <ele>1693</ele>
        <time>2022-05-22T13:39:32+02:00</time>
      </trkpt>
      <trkpt lat="46.29717" lon="6.58121">
        <ele>1695</ele>
        <time>2022-05-22T13:39:51+02:00</time>
      </trkpt>
      <trkpt lat="46.29725" lon="6.58114">
        <ele>1698</ele>
        <time>2022-05-22T13:40:11+02:00</time>
      </trkpt>
      <trkpt lat="46.29735" lon="6.58113">
        <ele>1702</ele>
        <time>2022-05-22T13:40:31+02:00</time>
      </trkpt>
      <trkpt lat="46.29743" lon="6.58108">
        <ele>1705</ele>
        <time>2022-05-22T13:40:52+02:00</time>
      </trkpt>
      <trkpt lat="46.29752" lon="6.58105">
        <ele>1708</ele>
        <time>2022-05-22T13:41:15+02:00</time>
      </trkpt>
      <trkpt lat="46.2976" lon="6.58096">
        <ele>1711</ele>
        <time>2022-05-22T13:41:53+02:00</time>
      </trkpt>
      <trkpt lat="46.29767" lon="6.58087">
        <ele>1714</ele>
        <time>2022-05-22T13:42:14+02:00</time>
      </trkpt>
      <trkpt lat="46.29771" lon="6.58075">
        <ele>1717</ele>
        <time>2022-05-22T13:42:32+02:00</time>
      </trkpt>
      <trkpt lat="46.29773" lon="6.58062">
        <ele>1720</ele>
        <time>2022-05-22T13:42:49+02:00</time>
      </trkpt>
      <trkpt lat="46.29781" lon="6.58055">
        <ele>1723</ele>
        <time>2022-05-22T13:43:10+02:00</time>
      </trkpt>
      <trkpt lat="46.29788" lon="6.58066">
        <ele>1725</ele>
        <time>2022-05-22T13:44:13+02:00</time>
      </trkpt>
      <trkpt lat="46.29791" lon="6.5808">
        <ele>1725</ele>
        <time>2022-05-22T13:44:24+02:00</time>
      </trkpt>
      <trkpt lat="46.29795" lon="6.58091">
        <ele>1727</ele>
        <time>2022-05-22T13:44:40+02:00</time>
      </trkpt>
      <trkpt lat="46.298" lon="6.58103">
        <ele>1727</ele>
        <time>2022-05-22T13:44:58+02:00</time>
      </trkpt>
      <trkpt lat="46.29803" lon="6.5809">
        <ele>1730</ele>
        <time>2022-05-22T13:47:28+02:00</time>
      </trkpt>
      <trkpt lat="46.29803" lon="6.58077">
        <ele>1733</ele>
        <time>2022-05-22T13:48:32+02:00</time>
      </trkpt>
      <trkpt lat="46.29808" lon="6.58088">
        <ele>1741</ele>
        <time>2022-05-22T13:50:10+02:00</time>
      </trkpt>
      <trkpt lat="46.29813" lon="6.581">
        <ele>1744</ele>
        <time>2022-05-22T13:50:32+02:00</time>
      </trkpt>
      <trkpt lat="46.2982" lon="6.58108">
        <ele>1748</ele>
        <time>2022-05-22T13:51:11+02:00</time>
      </trkpt>
      <trkpt lat="46.29827" lon="6.58117">
        <ele>1750</ele>
        <time>2022-05-22T13:51:30+02:00</time>
      </trkpt>
      <trkpt lat="46.29832" lon="6.58129">
        <ele>1752</ele>
        <time>2022-05-22T13:51:51+02:00</time>
      </trkpt>
      <trkpt lat="46.29838" lon="6.58139">
        <ele>1753</ele>
        <time>2022-05-22T13:52:04+02:00</time>
      </trkpt>
      <trkpt lat="46.29832" lon="6.58128">
        <ele>1756</ele>
        <time>2022-05-22T13:56:10+02:00</time>
      </trkpt>
      <trkpt lat="46.29827" lon="6.58117">
        <ele>1752</ele>
        <time>2022-05-22T13:56:30+02:00</time>
      </trkpt>
      <trkpt lat="46.2982" lon="6.58108">
        <ele>1750</ele>
        <time>2022-05-22T13:56:47+02:00</time>
      </trkpt>
      <trkpt lat="46.29813" lon="6.581">
        <ele>1746</ele>
        <time>2022-05-22T13:57:43+02:00</time>
      </trkpt>
      <trkpt lat="46.29807" lon="6.5809">
        <ele>1743</ele>
        <time>2022-05-22T13:57:59+02:00</time>
      </trkpt>
      <trkpt lat="46.29805" lon="6.58077">
        <ele>1737</ele>
        <time>2022-05-22T13:59:32+02:00</time>
      </trkpt>
      <trkpt lat="46.298" lon="6.58088">
        <ele>1731</ele>
        <time>2022-05-22T14:00:23+02:00</time>
      </trkpt>
      <trkpt lat="46.298" lon="6.58101">
        <ele>1729</ele>
        <time>2022-05-22T14:00:39+02:00</time>
      </trkpt>
      <trkpt lat="46.29795" lon="6.5809">
        <ele>1727</ele>
        <time>2022-05-22T14:00:55+02:00</time>
      </trkpt>
      <trkpt lat="46.2979" lon="6.58079">
        <ele>1725</ele>
        <time>2022-05-22T14:01:11+02:00</time>
      </trkpt>
      <trkpt lat="46.29784" lon="6.58056">
        <ele>1724</ele>
        <time>2022-05-22T14:01:36+02:00</time>
      </trkpt>
      <trkpt lat="46.29774" lon="6.58058">
        <ele>1721</ele>
        <time>2022-05-22T14:01:59+02:00</time>
      </trkpt>
      <trkpt lat="46.2977" lon="6.5807">
        <ele>1720</ele>
        <time>2022-05-22T14:02:07+02:00</time>
      </trkpt>
      <trkpt lat="46.29766" lon="6.58084">
        <ele>1718</ele>
        <time>2022-05-22T14:02:17+02:00</time>
      </trkpt>
      <trkpt lat="46.29761" lon="6.58095">
        <ele>1715</ele>
        <time>2022-05-22T14:02:29+02:00</time>
      </trkpt>
      <trkpt lat="46.29753" lon="6.58103">
        <ele>1714</ele>
        <time>2022-05-22T14:02:40+02:00</time>
      </trkpt>
      <trkpt lat="46.29744" lon="6.58112">
        <ele>1709</ele>
        <time>2022-05-22T14:02:47+02:00</time>
      </trkpt>
      <trkpt lat="46.29735" lon="6.58111">
        <ele>1707</ele>
        <time>2022-05-22T14:03:02+02:00</time>
      </trkpt>
      <trkpt lat="46.29726" lon="6.58115">
        <ele>1702</ele>
        <time>2022-05-22T14:03:13+02:00</time>
      </trkpt>
      <trkpt lat="46.29716" lon="6.58118">
        <ele>1699</ele>
        <time>2022-05-22T14:03:25+02:00</time>
      </trkpt>
      <trkpt lat="46.29708" lon="6.58125">
        <ele>1695</ele>
        <time>2022-05-22T14:03:35+02:00</time>
      </trkpt>
      <trkpt lat="46.29699" lon="6.58128">
        <ele>1692</ele>
        <time>2022-05-22T14:03:46+02:00</time>
      </trkpt>
      <trkpt lat="46.2969" lon="6.58135">
        <ele>1689</ele>
        <time>2022-05-22T14:03:56+02:00</time>
      </trkpt>
      <trkpt lat="46.29681" lon="6.58139">
        <ele>1684</ele>
        <time>2022-05-22T14:04:06+02:00</time>
      </trkpt>
      <trkpt lat="46.29671" lon="6.58141">
        <ele>1682</ele>
        <time>2022-05-22T14:04:15+02:00</time>
      </trkpt>
      <trkpt lat="46.29662" lon="6.58142">
        <ele>1682</ele>
        <time>2022-05-22T14:04:22+02:00</time>
      </trkpt>
      <trkpt lat="46.29653" lon="6.58143">
        <ele>1678</ele>
        <time>2022-05-22T14:04:29+02:00</time>
      </trkpt>
      <trkpt lat="46.29643" lon="6.58145">
        <ele>1676</ele>
        <time>2022-05-22T14:04:36+02:00</time>
      </trkpt>
      <trkpt lat="46.29634" lon="6.58146">
        <ele>1674</ele>
        <time>2022-05-22T14:04:43+02:00</time>
      </trkpt>
      <trkpt lat="46.29624" lon="6.58144">
        <ele>1673</ele>
        <time>2022-05-22T14:04:50+02:00</time>
      </trkpt>
      <trkpt lat="46.29614" lon="6.58142">
        <ele>1672</ele>
        <time>2022-05-22T14:04:57+02:00</time>
      </trkpt>
      <trkpt lat="46.29604" lon="6.5814">
        <ele>1670</ele>
        <time>2022-05-22T14:05:04+02:00</time>
      </trkpt>
      <trkpt lat="46.29594" lon="6.58138">
        <ele>1667</ele>
        <time>2022-05-22T14:05:12+02:00</time>
      </trkpt>
      <trkpt lat="46.29585" lon="6.58137">
        <ele>1666</ele>
        <time>2022-05-22T14:05:19+02:00</time>
      </trkpt>
      <trkpt lat="46.29575" lon="6.58136">
        <ele>1666</ele>
        <time>2022-05-22T14:05:26+02:00</time>
      </trkpt>
      <trkpt lat="46.29566" lon="6.58132">
        <ele>1666</ele>
        <time>2022-05-22T14:05:36+02:00</time>
      </trkpt>
      <trkpt lat="46.29558" lon="6.58125">
        <ele>1665</ele>
        <time>2022-05-22T14:05:45+02:00</time>
      </trkpt>
      <trkpt lat="46.29549" lon="6.58126">
        <ele>1678</ele>
        <time>2022-05-22T14:23:33+02:00</time>
      </trkpt>
      <trkpt lat="46.29557" lon="6.58137">
        <ele>1665</ele>
        <time>2022-05-22T14:43:54+02:00</time>
      </trkpt>
      <trkpt lat="46.29554" lon="6.58109">
        <ele>1654</ele>
        <time>2022-05-22T14:44:26+02:00</time>
      </trkpt>
      <trkpt lat="46.29548" lon="6.5812">
        <ele>1665</ele>
        <time>2022-05-22T14:44:29+02:00</time>
      </trkpt>
      <trkpt lat="46.29538" lon="6.58118">
        <ele>1667</ele>
        <time>2022-05-22T14:46:39+02:00</time>
      </trkpt>
      <trkpt lat="46.29532" lon="6.58107">
        <ele>1667</ele>
        <time>2022-05-22T14:46:49+02:00</time>
      </trkpt>
      <trkpt lat="46.29523" lon="6.58103">
        <ele>1666</ele>
        <time>2022-05-22T14:46:58+02:00</time>
      </trkpt>
      <trkpt lat="46.29515" lon="6.58096">
        <ele>1666</ele>
        <time>2022-05-22T14:47:07+02:00</time>
      </trkpt>
      <trkpt lat="46.29506" lon="6.5809">
        <ele>1665</ele>
        <time>2022-05-22T14:47:16+02:00</time>
      </trkpt>
      <trkpt lat="46.29497" lon="6.58084">
        <ele>1665</ele>
        <time>2022-05-22T14:47:25+02:00</time>
      </trkpt>
      <trkpt lat="46.29489" lon="6.58078">
        <ele>1665</ele>
        <time>2022-05-22T14:47:39+02:00</time>
      </trkpt>
      <trkpt lat="46.29483" lon="6.58067">
        <ele>1666</ele>
        <time>2022-05-22T14:47:48+02:00</time>
      </trkpt>
      <trkpt lat="46.29477" lon="6.58057">
        <ele>1667</ele>
        <time>2022-05-22T14:47:57+02:00</time>
      </trkpt>
      <trkpt lat="46.29469" lon="6.58048">
        <ele>1668</ele>
        <time>2022-05-22T14:48:06+02:00</time>
      </trkpt>
      <trkpt lat="46.29462" lon="6.5804">
        <ele>1668</ele>
        <time>2022-05-22T14:48:15+02:00</time>
      </trkpt>
      <trkpt lat="46.29453" lon="6.58035">
        <ele>1667</ele>
        <time>2022-05-22T14:48:24+02:00</time>
      </trkpt>
      <trkpt lat="46.29443" lon="6.58031">
        <ele>1668</ele>
        <time>2022-05-22T14:48:33+02:00</time>
      </trkpt>
      <trkpt lat="46.29435" lon="6.58024">
        <ele>1667</ele>
        <time>2022-05-22T14:48:41+02:00</time>
      </trkpt>
      <trkpt lat="46.29426" lon="6.58018">
        <ele>1667</ele>
        <time>2022-05-22T14:48:53+02:00</time>
      </trkpt>
      <trkpt lat="46.29417" lon="6.58013">
        <ele>1666</ele>
        <time>2022-05-22T14:49:02+02:00</time>
      </trkpt>
      <trkpt lat="46.29407" lon="6.58008">
        <ele>1666</ele>
        <time>2022-05-22T14:49:12+02:00</time>
      </trkpt>
      <trkpt lat="46.29398" lon="6.58004">
        <ele>1665</ele>
        <time>2022-05-22T14:49:21+02:00</time>
      </trkpt>
      <trkpt lat="46.2939" lon="6.57998">
        <ele>1664</ele>
        <time>2022-05-22T14:49:32+02:00</time>
      </trkpt>
      <trkpt lat="46.29382" lon="6.57992">
        <ele>1662</ele>
        <time>2022-05-22T14:49:43+02:00</time>
      </trkpt>
      <trkpt lat="46.29372" lon="6.5799">
        <ele>1659</ele>
        <time>2022-05-22T14:49:55+02:00</time>
      </trkpt>
      <trkpt lat="46.29364" lon="6.57983">
        <ele>1657</ele>
        <time>2022-05-22T14:50:05+02:00</time>
      </trkpt>
      <trkpt lat="46.29357" lon="6.57975">
        <ele>1655</ele>
        <time>2022-05-22T14:50:19+02:00</time>
      </trkpt>
      <trkpt lat="46.29349" lon="6.57967">
        <ele>1652</ele>
        <time>2022-05-22T14:50:33+02:00</time>
      </trkpt>
      <trkpt lat="46.2934" lon="6.57966">
        <ele>1648</ele>
        <time>2022-05-22T14:50:50+02:00</time>
      </trkpt>
      <trkpt lat="46.29332" lon="6.57959">
        <ele>1647</ele>
        <time>2022-05-22T14:51:00+02:00</time>
      </trkpt>
      <trkpt lat="46.29324" lon="6.57953">
        <ele>1644</ele>
        <time>2022-05-22T14:51:11+02:00</time>
      </trkpt>
      <trkpt lat="46.29319" lon="6.57941">
        <ele>1640</ele>
        <time>2022-05-22T14:51:29+02:00</time>
      </trkpt>
      <trkpt lat="46.2931" lon="6.57938">
        <ele>1636</ele>
        <time>2022-05-22T14:51:45+02:00</time>
      </trkpt>
      <trkpt lat="46.29305" lon="6.57949">
        <ele>1631</ele>
        <time>2022-05-22T14:52:25+02:00</time>
      </trkpt>
      <trkpt lat="46.29307" lon="6.57963">
        <ele>1631</ele>
        <time>2022-05-22T14:52:36+02:00</time>
      </trkpt>
      <trkpt lat="46.29302" lon="6.57974">
        <ele>1628</ele>
        <time>2022-05-22T14:52:48+02:00</time>
      </trkpt>
      <trkpt lat="46.29294" lon="6.57984">
        <ele>1628</ele>
        <time>2022-05-22T14:52:58+02:00</time>
      </trkpt>
      <trkpt lat="46.29294" lon="6.57998">
        <ele>1626</ele>
        <time>2022-05-22T14:53:07+02:00</time>
      </trkpt>
      <trkpt lat="46.29288" lon="6.57987">
        <ele>1625</ele>
        <time>2022-05-22T14:53:45+02:00</time>
      </trkpt>
      <trkpt lat="46.29281" lon="6.57978">
        <ele>1625</ele>
        <time>2022-05-22T14:53:56+02:00</time>
      </trkpt>
      <trkpt lat="46.29272" lon="6.57977">
        <ele>1624</ele>
        <time>2022-05-22T14:54:15+02:00</time>
      </trkpt>
      <trkpt lat="46.29279" lon="6.57969">
        <ele>1623</ele>
        <time>2022-05-22T14:55:22+02:00</time>
      </trkpt>
      <trkpt lat="46.29278" lon="6.57955">
        <ele>1623</ele>
        <time>2022-05-22T14:55:32+02:00</time>
      </trkpt>
      <trkpt lat="46.29277" lon="6.57941">
        <ele>1622</ele>
        <time>2022-05-22T14:55:41+02:00</time>
      </trkpt>
      <trkpt lat="46.29275" lon="6.57927">
        <ele>1621</ele>
        <time>2022-05-22T14:55:50+02:00</time>
      </trkpt>
      <trkpt lat="46.29278" lon="6.57914">
        <ele>1619</ele>
        <time>2022-05-22T14:55:58+02:00</time>
      </trkpt>
      <trkpt lat="46.29283" lon="6.57902">
        <ele>1619</ele>
        <time>2022-05-22T14:56:08+02:00</time>
      </trkpt>
      <trkpt lat="46.29275" lon="6.57894">
        <ele>1615</ele>
        <time>2022-05-22T14:56:30+02:00</time>
      </trkpt>
      <trkpt lat="46.2927" lon="6.57883">
        <ele>1612</ele>
        <time>2022-05-22T14:56:44+02:00</time>
      </trkpt>
      <trkpt lat="46.29275" lon="6.57872">
        <ele>1606</ele>
        <time>2022-05-22T14:57:23+02:00</time>
      </trkpt>
      <trkpt lat="46.29284" lon="6.57868">
        <ele>1605</ele>
        <time>2022-05-22T14:57:33+02:00</time>
      </trkpt>
      <trkpt lat="46.29293" lon="6.57862">
        <ele>1603</ele>
        <time>2022-05-22T14:57:57+02:00</time>
      </trkpt>
      <trkpt lat="46.29303" lon="6.57859">
        <ele>1601</ele>
        <time>2022-05-22T14:58:13+02:00</time>
      </trkpt>
      <trkpt lat="46.29313" lon="6.57857">
        <ele>1601</ele>
        <time>2022-05-22T14:58:23+02:00</time>
      </trkpt>
      <trkpt lat="46.29322" lon="6.57856">
        <ele>1600</ele>
        <time>2022-05-22T14:58:31+02:00</time>
      </trkpt>
      <trkpt lat="46.29332" lon="6.57856">
        <ele>1599</ele>
        <time>2022-05-22T14:58:40+02:00</time>
      </trkpt>
      <trkpt lat="46.29343" lon="6.57856">
        <ele>1595</ele>
        <time>2022-05-22T14:58:49+02:00</time>
      </trkpt>
      <trkpt lat="46.29352" lon="6.57854">
        <ele>1594</ele>
        <time>2022-05-22T14:58:58+02:00</time>
      </trkpt>
      <trkpt lat="46.29362" lon="6.5785">
        <ele>1593</ele>
        <time>2022-05-22T14:59:09+02:00</time>
      </trkpt>
      <trkpt lat="46.29371" lon="6.57848">
        <ele>1592</ele>
        <time>2022-05-22T14:59:19+02:00</time>
      </trkpt>
      <trkpt lat="46.29379" lon="6.57842">
        <ele>1590</ele>
        <time>2022-05-22T14:59:30+02:00</time>
      </trkpt>
      <trkpt lat="46.29388" lon="6.57841">
        <ele>1586</ele>
        <time>2022-05-22T14:59:44+02:00</time>
      </trkpt>
      <trkpt lat="46.29397" lon="6.57835">
        <ele>1585</ele>
        <time>2022-05-22T14:59:56+02:00</time>
      </trkpt>
      <trkpt lat="46.29405" lon="6.57829">
        <ele>1583</ele>
        <time>2022-05-22T15:00:07+02:00</time>
      </trkpt>
      <trkpt lat="46.29413" lon="6.57823">
        <ele>1580</ele>
        <time>2022-05-22T15:00:19+02:00</time>
      </trkpt>
      <trkpt lat="46.29422" lon="6.5782">
        <ele>1578</ele>
        <time>2022-05-22T15:00:37+02:00</time>
      </trkpt>
      <trkpt lat="46.29431" lon="6.57813">
        <ele>1577</ele>
        <time>2022-05-22T15:01:13+02:00</time>
      </trkpt>
      <trkpt lat="46.29439" lon="6.57816">
        <ele>1574</ele>
        <time>2022-05-22T15:01:27+02:00</time>
      </trkpt>
      <trkpt lat="46.29449" lon="6.57815">
        <ele>1569</ele>
        <time>2022-05-22T15:01:46+02:00</time>
      </trkpt>
      <trkpt lat="46.29457" lon="6.5781">
        <ele>1571</ele>
        <time>2022-05-22T15:01:58+02:00</time>
      </trkpt>
      <trkpt lat="46.29465" lon="6.57804">
        <ele>1571</ele>
        <time>2022-05-22T15:02:11+02:00</time>
      </trkpt>
      <trkpt lat="46.29457" lon="6.57797">
        <ele>1568</ele>
        <time>2022-05-22T15:02:38+02:00</time>
      </trkpt>
      <trkpt lat="46.29449" lon="6.5779">
        <ele>1566</ele>
        <time>2022-05-22T15:02:52+02:00</time>
      </trkpt>
      <trkpt lat="46.29442" lon="6.5778">
        <ele>1562</ele>
        <time>2022-05-22T15:03:09+02:00</time>
      </trkpt>
      <trkpt lat="46.29436" lon="6.5777">
        <ele>1560</ele>
        <time>2022-05-22T15:03:17+02:00</time>
      </trkpt>
      <trkpt lat="46.29431" lon="6.57758">
        <ele>1559</ele>
        <time>2022-05-22T15:03:28+02:00</time>
      </trkpt>
      <trkpt lat="46.29425" lon="6.57748">
        <ele>1556</ele>
        <time>2022-05-22T15:03:43+02:00</time>
      </trkpt>
      <trkpt lat="46.29417" lon="6.57742">
        <ele>1555</ele>
        <time>2022-05-22T15:03:50+02:00</time>
      </trkpt>
      <trkpt lat="46.29413" lon="6.5773">
        <ele>1556</ele>
        <time>2022-05-22T15:03:55+02:00</time>
      </trkpt>
      <trkpt lat="46.29407" lon="6.57718">
        <ele>1554</ele>
        <time>2022-05-22T15:04:05+02:00</time>
      </trkpt>
      <trkpt lat="46.29402" lon="6.57708">
        <ele>1553</ele>
        <time>2022-05-22T15:04:16+02:00</time>
      </trkpt>
      <trkpt lat="46.29395" lon="6.57699">
        <ele>1551</ele>
        <time>2022-05-22T15:04:26+02:00</time>
      </trkpt>
      <trkpt lat="46.29385" lon="6.57693">
        <ele>1549</ele>
        <time>2022-05-22T15:04:35+02:00</time>
      </trkpt>
      <trkpt lat="46.29382" lon="6.5768">
        <ele>1546</ele>
        <time>2022-05-22T15:04:45+02:00</time>
      </trkpt>
      <trkpt lat="46.29375" lon="6.57672">
        <ele>1543</ele>
        <time>2022-05-22T15:04:54+02:00</time>
      </trkpt>
      <trkpt lat="46.2937" lon="6.5766">
        <ele>1541</ele>
        <time>2022-05-22T15:05:05+02:00</time>
      </trkpt>
      <trkpt lat="46.29362" lon="6.57653">
        <ele>1538</ele>
        <time>2022-05-22T15:05:16+02:00</time>
      </trkpt>
      <trkpt lat="46.29356" lon="6.57642">
        <ele>1535</ele>
        <time>2022-05-22T15:05:23+02:00</time>
      </trkpt>
      <trkpt lat="46.29353" lon="6.5763">
        <ele>1534</ele>
        <time>2022-05-22T15:05:38+02:00</time>
      </trkpt>
      <trkpt lat="46.29349" lon="6.57618">
        <ele>1532</ele>
        <time>2022-05-22T15:05:47+02:00</time>
      </trkpt>
      <trkpt lat="46.29342" lon="6.57608">
        <ele>1529</ele>
        <time>2022-05-22T15:05:55+02:00</time>
      </trkpt>
      <trkpt lat="46.29336" lon="6.57598">
        <ele>1526</ele>
        <time>2022-05-22T15:06:07+02:00</time>
      </trkpt>
      <trkpt lat="46.29327" lon="6.5759">
        <ele>1523</ele>
        <time>2022-05-22T15:06:15+02:00</time>
      </trkpt>
      <trkpt lat="46.29321" lon="6.57581">
        <ele>1519</ele>
        <time>2022-05-22T15:06:26+02:00</time>
      </trkpt>
      <trkpt lat="46.29314" lon="6.5757">
        <ele>1517</ele>
        <time>2022-05-22T15:06:37+02:00</time>
      </trkpt>
      <trkpt lat="46.29308" lon="6.57559">
        <ele>1515</ele>
        <time>2022-05-22T15:06:46+02:00</time>
      </trkpt>
      <trkpt lat="46.29307" lon="6.57546">
        <ele>1513</ele>
        <time>2022-05-22T15:06:54+02:00</time>
      </trkpt>
      <trkpt lat="46.29304" lon="6.57531">
        <ele>1514</ele>
        <time>2022-05-22T15:07:09+02:00</time>
      </trkpt>
      <trkpt lat="46.29305" lon="6.57518">
        <ele>1515</ele>
        <time>2022-05-22T15:07:17+02:00</time>
      </trkpt>
      <trkpt lat="46.2931" lon="6.57507">
        <ele>1512</ele>
        <time>2022-05-22T15:07:33+02:00</time>
      </trkpt>
      <trkpt lat="46.29319" lon="6.575">
        <ele>1510</ele>
        <time>2022-05-22T15:07:51+02:00</time>
      </trkpt>
      <trkpt lat="46.29327" lon="6.57494">
        <ele>1508</ele>
        <time>2022-05-22T15:07:59+02:00</time>
      </trkpt>
      <trkpt lat="46.29337" lon="6.57495">
        <ele>1505</ele>
        <time>2022-05-22T15:08:08+02:00</time>
      </trkpt>
      <trkpt lat="46.29347" lon="6.57496">
        <ele>1503</ele>
        <time>2022-05-22T15:08:19+02:00</time>
      </trkpt>
      <trkpt lat="46.29356" lon="6.57492">
        <ele>1502</ele>
        <time>2022-05-22T15:08:29+02:00</time>
      </trkpt>
      <trkpt lat="46.29366" lon="6.5749">
        <ele>1501</ele>
        <time>2022-05-22T15:08:43+02:00</time>
      </trkpt>
      <trkpt lat="46.29375" lon="6.57486">
        <ele>1500</ele>
        <time>2022-05-22T15:08:52+02:00</time>
      </trkpt>
      <trkpt lat="46.29384" lon="6.57487">
        <ele>1499</ele>
        <time>2022-05-22T15:09:22+02:00</time>
      </trkpt>
      <trkpt lat="46.29393" lon="6.57488">
        <ele>1497</ele>
        <time>2022-05-22T15:09:40+02:00</time>
      </trkpt>
      <trkpt lat="46.29401" lon="6.57482">
        <ele>1494</ele>
        <time>2022-05-22T15:10:08+02:00</time>
      </trkpt>
      <trkpt lat="46.29411" lon="6.57481">
        <ele>1492</ele>
        <time>2022-05-22T15:10:17+02:00</time>
      </trkpt>
      <trkpt lat="46.29421" lon="6.5748">
        <ele>1487</ele>
        <time>2022-05-22T15:10:30+02:00</time>
      </trkpt>
      <trkpt lat="46.2943" lon="6.57481">
        <ele>1486</ele>
        <time>2022-05-22T15:10:39+02:00</time>
      </trkpt>
      <trkpt lat="46.29432" lon="6.57468">
        <ele>1482</ele>
        <time>2022-05-22T15:11:16+02:00</time>
      </trkpt>
      <trkpt lat="46.29441" lon="6.57463">
        <ele>1476</ele>
        <time>2022-05-22T15:11:36+02:00</time>
      </trkpt>
      <trkpt lat="46.29449" lon="6.57456">
        <ele>1470</ele>
        <time>2022-05-22T15:11:51+02:00</time>
      </trkpt>
      <trkpt lat="46.29455" lon="6.57447">
        <ele>1468</ele>
        <time>2022-05-22T15:12:11+02:00</time>
      </trkpt>
      <trkpt lat="46.29463" lon="6.57439">
        <ele>1464</ele>
        <time>2022-05-22T15:12:42+02:00</time>
      </trkpt>
      <trkpt lat="46.29468" lon="6.57427">
        <ele>1461</ele>
        <time>2022-05-22T15:13:01+02:00</time>
      </trkpt>
      <trkpt lat="46.29477" lon="6.57421">
        <ele>1458</ele>
        <time>2022-05-22T15:13:52+02:00</time>
      </trkpt>
      <trkpt lat="46.29485" lon="6.57415">
        <ele>1456</ele>
        <time>2022-05-22T15:13:59+02:00</time>
      </trkpt>
      <trkpt lat="46.29495" lon="6.5741">
        <ele>1454</ele>
        <time>2022-05-22T15:14:08+02:00</time>
      </trkpt>
      <trkpt lat="46.29502" lon="6.57403">
        <ele>1451</ele>
        <time>2022-05-22T15:14:19+02:00</time>
      </trkpt>
      <trkpt lat="46.2951" lon="6.57393">
        <ele>1450</ele>
        <time>2022-05-22T15:14:28+02:00</time>
      </trkpt>
      <trkpt lat="46.29515" lon="6.57382">
        <ele>1449</ele>
        <time>2022-05-22T15:14:39+02:00</time>
      </trkpt>
      <trkpt lat="46.29525" lon="6.57378">
        <ele>1448</ele>
        <time>2022-05-22T15:14:47+02:00</time>
      </trkpt>
      <trkpt lat="46.29534" lon="6.57375">
        <ele>1444</ele>
        <time>2022-05-22T15:15:01+02:00</time>
      </trkpt>
      <trkpt lat="46.2954" lon="6.57365">
        <ele>1443</ele>
        <time>2022-05-22T15:15:19+02:00</time>
      </trkpt>
      <trkpt lat="46.29545" lon="6.57354">
        <ele>1442</ele>
        <time>2022-05-22T15:15:28+02:00</time>
      </trkpt>
      <trkpt lat="46.29554" lon="6.57347">
        <ele>1438</ele>
        <time>2022-05-22T15:15:41+02:00</time>
      </trkpt>
      <trkpt lat="46.29562" lon="6.5734">
        <ele>1434</ele>
        <time>2022-05-22T15:15:54+02:00</time>
      </trkpt>
      <trkpt lat="46.2957" lon="6.57334">
        <ele>1431</ele>
        <time>2022-05-22T15:16:05+02:00</time>
      </trkpt>
      <trkpt lat="46.29577" lon="6.57326">
        <ele>1430</ele>
        <time>2022-05-22T15:16:23+02:00</time>
      </trkpt>
      <trkpt lat="46.29571" lon="6.57315">
        <ele>1426</ele>
        <time>2022-05-22T15:20:04+02:00</time>
      </trkpt>
      <trkpt lat="46.29562" lon="6.57309">
        <ele>1424</ele>
        <time>2022-05-22T15:20:15+02:00</time>
      </trkpt>
      <trkpt lat="46.29553" lon="6.57303">
        <ele>1421</ele>
        <time>2022-05-22T15:20:31+02:00</time>
      </trkpt>
      <trkpt lat="46.29544" lon="6.57298">
        <ele>1419</ele>
        <time>2022-05-22T15:20:40+02:00</time>
      </trkpt>
      <trkpt lat="46.29536" lon="6.57292">
        <ele>1415</ele>
        <time>2022-05-22T15:20:59+02:00</time>
      </trkpt>
      <trkpt lat="46.29527" lon="6.57286">
        <ele>1414</ele>
        <time>2022-05-22T15:21:03+02:00</time>
      </trkpt>
      <trkpt lat="46.29518" lon="6.57282">
        <ele>1412</ele>
        <time>2022-05-22T15:21:09+02:00</time>
      </trkpt>
      <trkpt lat="46.29509" lon="6.5728">
        <ele>1410</ele>
        <time>2022-05-22T15:21:17+02:00</time>
      </trkpt>
      <trkpt lat="46.29501" lon="6.57273">
        <ele>1404</ele>
        <time>2022-05-22T15:21:41+02:00</time>
      </trkpt>
      <trkpt lat="46.29491" lon="6.57268">
        <ele>1403</ele>
        <time>2022-05-22T15:21:49+02:00</time>
      </trkpt>
      <trkpt lat="46.29482" lon="6.57269">
        <ele>1401</ele>
        <time>2022-05-22T15:22:06+02:00</time>
      </trkpt>
      <trkpt lat="46.29475" lon="6.57262">
        <ele>1397</ele>
        <time>2022-05-22T15:23:05+02:00</time>
      </trkpt>
      <trkpt lat="46.29467" lon="6.57255">
        <ele>1395</ele>
        <time>2022-05-22T15:23:16+02:00</time>
      </trkpt>
      <trkpt lat="46.29457" lon="6.57251">
        <ele>1392</ele>
        <time>2022-05-22T15:23:33+02:00</time>
      </trkpt>
      <trkpt lat="46.29448" lon="6.57247">
        <ele>1389</ele>
        <time>2022-05-22T15:23:47+02:00</time>
      </trkpt>
      <trkpt lat="46.2944" lon="6.57241">
        <ele>1389</ele>
        <time>2022-05-22T15:23:59+02:00</time>
      </trkpt>
      <trkpt lat="46.2943" lon="6.57239">
        <ele>1386</ele>
        <time>2022-05-22T15:24:11+02:00</time>
      </trkpt>
      <trkpt lat="46.2942" lon="6.57235">
        <ele>1386</ele>
        <time>2022-05-22T15:24:16+02:00</time>
      </trkpt>
      <trkpt lat="46.29411" lon="6.57234">
        <ele>1382</ele>
        <time>2022-05-22T15:24:29+02:00</time>
      </trkpt>
      <trkpt lat="46.29402" lon="6.5723">
        <ele>1378</ele>
        <time>2022-05-22T15:24:39+02:00</time>
      </trkpt>
      <trkpt lat="46.29392" lon="6.57228">
        <ele>1375</ele>
        <time>2022-05-22T15:24:51+02:00</time>
      </trkpt>
      <trkpt lat="46.29383" lon="6.57226">
        <ele>1372</ele>
        <time>2022-05-22T15:25:05+02:00</time>
      </trkpt>
      <trkpt lat="46.29374" lon="6.57225">
        <ele>1370</ele>
        <time>2022-05-22T15:25:13+02:00</time>
      </trkpt>
      <trkpt lat="46.29365" lon="6.57219">
        <ele>1367</ele>
        <time>2022-05-22T15:25:25+02:00</time>
      </trkpt>
      <trkpt lat="46.29356" lon="6.57216">
        <ele>1366</ele>
        <time>2022-05-22T15:25:42+02:00</time>
      </trkpt>
      <trkpt lat="46.29347" lon="6.57215">
        <ele>1362</ele>
        <time>2022-05-22T15:26:09+02:00</time>
      </trkpt>
      <trkpt lat="46.29353" lon="6.57204">
        <ele>1361</ele>
        <time>2022-05-22T15:26:26+02:00</time>
      </trkpt>
      <trkpt lat="46.29361" lon="6.57198">
        <ele>1361</ele>
        <time>2022-05-22T15:26:37+02:00</time>
      </trkpt>
      <trkpt lat="46.2937" lon="6.57191">
        <ele>1360</ele>
        <time>2022-05-22T15:26:49+02:00</time>
      </trkpt>
      <trkpt lat="46.29379" lon="6.57187">
        <ele>1361</ele>
        <time>2022-05-22T15:26:57+02:00</time>
      </trkpt>
      <trkpt lat="46.29387" lon="6.5718">
        <ele>1361</ele>
        <time>2022-05-22T15:27:07+02:00</time>
      </trkpt>
      <trkpt lat="46.29395" lon="6.57176">
        <ele>1362</ele>
        <time>2022-05-22T15:27:20+02:00</time>
      </trkpt>
      <trkpt lat="46.29404" lon="6.57171">
        <ele>1362</ele>
        <time>2022-05-22T15:27:30+02:00</time>
      </trkpt>
      <trkpt lat="46.29413" lon="6.57167">
        <ele>1362</ele>
        <time>2022-05-22T15:27:40+02:00</time>
      </trkpt>
      <trkpt lat="46.29419" lon="6.57156">
        <ele>1362</ele>
        <time>2022-05-22T15:27:49+02:00</time>
      </trkpt>
      <trkpt lat="46.29427" lon="6.57148">
        <ele>1361</ele>
        <time>2022-05-22T15:27:56+02:00</time>
      </trkpt>
      <trkpt lat="46.29433" lon="6.57139">
        <ele>1360</ele>
        <time>2022-05-22T15:28:15+02:00</time>
      </trkpt>
      <trkpt lat="46.29428" lon="6.57128">
        <ele>1358</ele>
        <time>2022-05-22T15:29:15+02:00</time>
      </trkpt>
      <trkpt lat="46.2942" lon="6.57122">
        <ele>1355</ele>
        <time>2022-05-22T15:29:24+02:00</time>
      </trkpt>
      <trkpt lat="46.2941" lon="6.57122">
        <ele>1353</ele>
        <time>2022-05-22T15:29:35+02:00</time>
      </trkpt>
      <trkpt lat="46.294" lon="6.57122">
        <ele>1351</ele>
        <time>2022-05-22T15:29:44+02:00</time>
      </trkpt>
      <trkpt lat="46.29391" lon="6.57121">
        <ele>1349</ele>
        <time>2022-05-22T15:29:52+02:00</time>
      </trkpt>
      <trkpt lat="46.29382" lon="6.5712">
        <ele>1346</ele>
        <time>2022-05-22T15:30:03+02:00</time>
      </trkpt>
      <trkpt lat="46.29373" lon="6.57123">
        <ele>1345</ele>
        <time>2022-05-22T15:30:09+02:00</time>
      </trkpt>
      <trkpt lat="46.29363" lon="6.57123">
        <ele>1343</ele>
        <time>2022-05-22T15:30:18+02:00</time>
      </trkpt>
      <trkpt lat="46.29354" lon="6.57121">
        <ele>1340</ele>
        <time>2022-05-22T15:30:26+02:00</time>
      </trkpt>
      <trkpt lat="46.29344" lon="6.57118">
        <ele>1339</ele>
        <time>2022-05-22T15:30:35+02:00</time>
      </trkpt>
      <trkpt lat="46.29335" lon="6.57116">
        <ele>1336</ele>
        <time>2022-05-22T15:30:47+02:00</time>
      </trkpt>
      <trkpt lat="46.29325" lon="6.57116">
        <ele>1334</ele>
        <time>2022-05-22T15:30:55+02:00</time>
      </trkpt>
      <trkpt lat="46.29315" lon="6.57115">
        <ele>1331</ele>
        <time>2022-05-22T15:31:04+02:00</time>
      </trkpt>
      <trkpt lat="46.29305" lon="6.57114">
        <ele>1328</ele>
        <time>2022-05-22T15:31:13+02:00</time>
      </trkpt>
      <trkpt lat="46.29296" lon="6.57114">
        <ele>1326</ele>
        <time>2022-05-22T15:31:27+02:00</time>
      </trkpt>
      <trkpt lat="46.29287" lon="6.57111">
        <ele>1324</ele>
        <time>2022-05-22T15:31:33+02:00</time>
      </trkpt>
      <trkpt lat="46.29277" lon="6.57109">
        <ele>1321</ele>
        <time>2022-05-22T15:31:42+02:00</time>
      </trkpt>
      <trkpt lat="46.29266" lon="6.57106">
        <ele>1318</ele>
        <time>2022-05-22T15:32:00+02:00</time>
      </trkpt>
      <trkpt lat="46.29258" lon="6.57102">
        <ele>1316</ele>
        <time>2022-05-22T15:32:06+02:00</time>
      </trkpt>
      <trkpt lat="46.29247" lon="6.57098">
        <ele>1313</ele>
        <time>2022-05-22T15:32:17+02:00</time>
      </trkpt>
      <trkpt lat="46.29239" lon="6.57092">
        <ele>1312</ele>
        <time>2022-05-22T15:32:22+02:00</time>
      </trkpt>
      <trkpt lat="46.29231" lon="6.57088">
        <ele>1308</ele>
        <time>2022-05-22T15:32:35+02:00</time>
      </trkpt>
      <trkpt lat="46.29222" lon="6.57084">
        <ele>1307</ele>
        <time>2022-05-22T15:32:42+02:00</time>
      </trkpt>
      <trkpt lat="46.29212" lon="6.57086">
        <ele>1304</ele>
        <time>2022-05-22T15:32:53+02:00</time>
      </trkpt>
      <trkpt lat="46.29203" lon="6.5708">
        <ele>1298</ele>
        <time>2022-05-22T15:33:10+02:00</time>
      </trkpt>
      <trkpt lat="46.29195" lon="6.57073">
        <ele>1296</ele>
        <time>2022-05-22T15:33:22+02:00</time>
      </trkpt>
      <trkpt lat="46.29188" lon="6.57065">
        <ele>1292</ele>
        <time>2022-05-22T15:33:48+02:00</time>
      </trkpt>
      <trkpt lat="46.29178" lon="6.57061">
        <ele>1291</ele>
        <time>2022-05-22T15:33:57+02:00</time>
      </trkpt>
      <trkpt lat="46.2917" lon="6.57056">
        <ele>1287</ele>
        <time>2022-05-22T15:34:27+02:00</time>
      </trkpt>
      <trkpt lat="46.29164" lon="6.57046">
        <ele>1282</ele>
        <time>2022-05-22T15:35:11+02:00</time>
      </trkpt>
      <trkpt lat="46.29146" lon="6.57036">
        <ele>1278</ele>
        <time>2022-05-22T15:35:35+02:00</time>
      </trkpt>
      <trkpt lat="46.29137" lon="6.57038">
        <ele>1274</ele>
        <time>2022-05-22T15:35:57+02:00</time>
      </trkpt>
      <trkpt lat="46.29127" lon="6.5704">
        <ele>1273</ele>
        <time>2022-05-22T15:36:13+02:00</time>
      </trkpt>
      <trkpt lat="46.2912" lon="6.57032">
        <ele>1271</ele>
        <time>2022-05-22T15:36:18+02:00</time>
      </trkpt>
      <trkpt lat="46.29111" lon="6.57029">
        <ele>1268</ele>
        <time>2022-05-22T15:36:31+02:00</time>
      </trkpt>
      <trkpt lat="46.29103" lon="6.57037">
        <ele>1266</ele>
        <time>2022-05-22T15:36:43+02:00</time>
      </trkpt>
      <trkpt lat="46.29096" lon="6.57043">
        <ele>1262</ele>
        <time>2022-05-22T15:36:57+02:00</time>
      </trkpt>
      <trkpt lat="46.29088" lon="6.57035">
        <ele>1261</ele>
        <time>2022-05-22T15:37:11+02:00</time>
      </trkpt>
      <trkpt lat="46.29083" lon="6.57025">
        <ele>1259</ele>
        <time>2022-05-22T15:37:21+02:00</time>
      </trkpt>
      <trkpt lat="46.29077" lon="6.57014">
        <ele>1257</ele>
        <time>2022-05-22T15:37:31+02:00</time>
      </trkpt>
      <trkpt lat="46.29071" lon="6.57003">
        <ele>1256</ele>
        <time>2022-05-22T15:37:41+02:00</time>
      </trkpt>
      <trkpt lat="46.29063" lon="6.56998">
        <ele>1254</ele>
        <time>2022-05-22T15:37:53+02:00</time>
      </trkpt>
      <trkpt lat="46.29053" lon="6.56994">
        <ele>1255</ele>
        <time>2022-05-22T15:38:01+02:00</time>
      </trkpt>
      <trkpt lat="46.29044" lon="6.56989">
        <ele>1255</ele>
        <time>2022-05-22T15:38:09+02:00</time>
      </trkpt>
      <trkpt lat="46.29037" lon="6.56979">
        <ele>1254</ele>
        <time>2022-05-22T15:38:19+02:00</time>
      </trkpt>
      <trkpt lat="46.29032" lon="6.56968">
        <ele>1252</ele>
        <time>2022-05-22T15:38:30+02:00</time>
      </trkpt>
      <trkpt lat="46.29025" lon="6.56959">
        <ele>1249</ele>
        <time>2022-05-22T15:38:40+02:00</time>
      </trkpt>
      <trkpt lat="46.29017" lon="6.56953">
        <ele>1247</ele>
        <time>2022-05-22T15:38:50+02:00</time>
      </trkpt>
      <trkpt lat="46.29009" lon="6.56945">
        <ele>1244</ele>
        <time>2022-05-22T15:39:04+02:00</time>
      </trkpt>
      <trkpt lat="46.29002" lon="6.56938">
        <ele>1242</ele>
        <time>2022-05-22T15:39:13+02:00</time>
      </trkpt>
      <trkpt lat="46.28994" lon="6.56931">
        <ele>1239</ele>
        <time>2022-05-22T15:39:23+02:00</time>
      </trkpt>
      <trkpt lat="46.28987" lon="6.56922">
        <ele>1237</ele>
        <time>2022-05-22T15:39:33+02:00</time>
      </trkpt>
      <trkpt lat="46.28978" lon="6.56917">
        <ele>1235</ele>
        <time>2022-05-22T15:39:45+02:00</time>
      </trkpt>
      <trkpt lat="46.28969" lon="6.56913">
        <ele>1233</ele>
        <time>2022-05-22T15:39:53+02:00</time>
      </trkpt>
      <trkpt lat="46.28961" lon="6.56905">
        <ele>1231</ele>
        <time>2022-05-22T15:40:04+02:00</time>
      </trkpt>
      <trkpt lat="46.28954" lon="6.56897">
        <ele>1228</ele>
        <time>2022-05-22T15:40:24+02:00</time>
      </trkpt>
      <trkpt lat="46.28945" lon="6.56895">
        <ele>1227</ele>
        <time>2022-05-22T15:40:32+02:00</time>
      </trkpt>
      <trkpt lat="46.28936" lon="6.56889">
        <ele>1225</ele>
        <time>2022-05-22T15:40:41+02:00</time>
      </trkpt>
      <trkpt lat="46.28927" lon="6.56882">
        <ele>1222</ele>
        <time>2022-05-22T15:41:06+02:00</time>
      </trkpt>
      <trkpt lat="46.28922" lon="6.56871">
        <ele>1219</ele>
        <time>2022-05-22T15:41:16+02:00</time>
      </trkpt>
      <trkpt lat="46.28915" lon="6.56862">
        <ele>1215</ele>
        <time>2022-05-22T15:41:29+02:00</time>
      </trkpt>
      <trkpt lat="46.28908" lon="6.56851">
        <ele>1213</ele>
        <time>2022-05-22T15:41:37+02:00</time>
      </trkpt>
      <trkpt lat="46.28901" lon="6.56842">
        <ele>1212</ele>
        <time>2022-05-22T15:41:46+02:00</time>
      </trkpt>
      <trkpt lat="46.28893" lon="6.56837">
        <ele>1208</ele>
        <time>2022-05-22T15:42:05+02:00</time>
      </trkpt>
      <trkpt lat="46.28884" lon="6.56833">
        <ele>1208</ele>
        <time>2022-05-22T15:42:10+02:00</time>
      </trkpt>
      <trkpt lat="46.28875" lon="6.56835">
        <ele>1207</ele>
        <time>2022-05-22T15:42:15+02:00</time>
      </trkpt>
      <trkpt lat="46.28866" lon="6.56835">
        <ele>1205</ele>
        <time>2022-05-22T15:42:23+02:00</time>
      </trkpt>
      <trkpt lat="46.28857" lon="6.56839">
        <ele>1203</ele>
        <time>2022-05-22T15:42:34+02:00</time>
      </trkpt>
      <trkpt lat="46.28847" lon="6.56839">
        <ele>1201</ele>
        <time>2022-05-22T15:42:46+02:00</time>
      </trkpt>
      <trkpt lat="46.28838" lon="6.56833">
        <ele>1199</ele>
        <time>2022-05-22T15:42:55+02:00</time>
      </trkpt>
      <trkpt lat="46.2883" lon="6.56828">
        <ele>1198</ele>
        <time>2022-05-22T15:43:06+02:00</time>
      </trkpt>
      <trkpt lat="46.28825" lon="6.56816">
        <ele>1197</ele>
        <time>2022-05-22T15:43:14+02:00</time>
      </trkpt>
      <trkpt lat="46.28818" lon="6.56805">
        <ele>1196</ele>
        <time>2022-05-22T15:43:22+02:00</time>
      </trkpt>
      <trkpt lat="46.28811" lon="6.56795">
        <ele>1195</ele>
        <time>2022-05-22T15:43:29+02:00</time>
      </trkpt>
      <trkpt lat="46.28802" lon="6.5679">
        <ele>1192</ele>
        <time>2022-05-22T15:43:38+02:00</time>
      </trkpt>
      <trkpt lat="46.28795" lon="6.56779">
        <ele>1191</ele>
        <time>2022-05-22T15:43:46+02:00</time>
      </trkpt>
      <trkpt lat="46.28787" lon="6.56769">
        <ele>1188</ele>
        <time>2022-05-22T15:43:55+02:00</time>
      </trkpt>
      <trkpt lat="46.28777" lon="6.56765">
        <ele>1187</ele>
        <time>2022-05-22T15:44:01+02:00</time>
      </trkpt>
      <trkpt lat="46.2877" lon="6.56757">
        <ele>1186</ele>
        <time>2022-05-22T15:44:07+02:00</time>
      </trkpt>
      <trkpt lat="46.28762" lon="6.56748">
        <ele>1184</ele>
        <time>2022-05-22T15:44:16+02:00</time>
      </trkpt>
      <trkpt lat="46.28757" lon="6.56738">
        <ele>1184</ele>
        <time>2022-05-22T15:44:26+02:00</time>
      </trkpt>
      <trkpt lat="46.2875" lon="6.56728">
        <ele>1183</ele>
        <time>2022-05-22T15:44:36+02:00</time>
      </trkpt>
      <trkpt lat="46.2874" lon="6.5672">
        <ele>1181</ele>
        <time>2022-05-22T15:44:44+02:00</time>
      </trkpt>
      <trkpt lat="46.2873" lon="6.56715">
        <ele>1178</ele>
        <time>2022-05-22T15:44:52+02:00</time>
      </trkpt>
      <trkpt lat="46.28723" lon="6.56706">
        <ele>1177</ele>
        <time>2022-05-22T15:45:02+02:00</time>
      </trkpt>
      <trkpt lat="46.28717" lon="6.56696">
        <ele>1175</ele>
        <time>2022-05-22T15:45:14+02:00</time>
      </trkpt>
      <trkpt lat="46.28708" lon="6.56691">
        <ele>1171</ele>
        <time>2022-05-22T15:45:21+02:00</time>
      </trkpt>
      <trkpt lat="46.28701" lon="6.56684">
        <ele>1169</ele>
        <time>2022-05-22T15:45:44+02:00</time>
      </trkpt>
      <trkpt lat="46.28691" lon="6.56681">
        <ele>1168</ele>
        <time>2022-05-22T15:46:11+02:00</time>
      </trkpt>
      <trkpt lat="46.28681" lon="6.5668">
        <ele>1164</ele>
        <time>2022-05-22T15:46:38+02:00</time>
      </trkpt>
      <trkpt lat="46.28672" lon="6.56675">
        <ele>1163</ele>
        <time>2022-05-22T15:46:49+02:00</time>
      </trkpt>
      <trkpt lat="46.28668" lon="6.56662">
        <ele>1157</ele>
        <time>2022-05-22T15:47:02+02:00</time>
      </trkpt>
      <trkpt lat="46.28662" lon="6.5665">
        <ele>1155</ele>
        <time>2022-05-22T15:47:12+02:00</time>
      </trkpt>
      <trkpt lat="46.28658" lon="6.56637">
        <ele>1152</ele>
        <time>2022-05-22T15:47:21+02:00</time>
      </trkpt>
      <trkpt lat="46.28651" lon="6.56626">
        <ele>1149</ele>
        <time>2022-05-22T15:47:31+02:00</time>
      </trkpt>
      <trkpt lat="46.28652" lon="6.56613">
        <ele>1147</ele>
        <time>2022-05-22T15:47:44+02:00</time>
      </trkpt>
      <trkpt lat="46.28648" lon="6.56602">
        <ele>1143</ele>
        <time>2022-05-22T15:48:02+02:00</time>
      </trkpt>
      <trkpt lat="46.28639" lon="6.56594">
        <ele>1140</ele>
        <time>2022-05-22T15:48:13+02:00</time>
      </trkpt>
      <trkpt lat="46.28631" lon="6.56585">
        <ele>1139</ele>
        <time>2022-05-22T15:48:24+02:00</time>
      </trkpt>
      <trkpt lat="46.28624" lon="6.56578">
        <ele>1136</ele>
        <time>2022-05-22T15:48:38+02:00</time>
      </trkpt>
      <trkpt lat="46.28616" lon="6.5657">
        <ele>1134</ele>
        <time>2022-05-22T15:48:46+02:00</time>
      </trkpt>
      <trkpt lat="46.28608" lon="6.56563">
        <ele>1131</ele>
        <time>2022-05-22T15:48:56+02:00</time>
      </trkpt>
      <trkpt lat="46.28599" lon="6.56558">
        <ele>1127</ele>
        <time>2022-05-22T15:49:31+02:00</time>
      </trkpt>
      <trkpt lat="46.28593" lon="6.56547">
        <ele>1125</ele>
        <time>2022-05-22T15:49:55+02:00</time>
      </trkpt>
      <trkpt lat="46.28589" lon="6.56534">
        <ele>1122</ele>
        <time>2022-05-22T15:50:07+02:00</time>
      </trkpt>
      <trkpt lat="46.28589" lon="6.56521">
        <ele>1119</ele>
        <time>2022-05-22T15:50:22+02:00</time>
      </trkpt>
      <trkpt lat="46.28594" lon="6.56511">
        <ele>1117</ele>
        <time>2022-05-22T15:51:01+02:00</time>
      </trkpt>
      <trkpt lat="46.28586" lon="6.56518">
        <ele>1118</ele>
        <time>2022-05-22T15:55:12+02:00</time>
      </trkpt>
      <trkpt lat="46.28586" lon="6.56504">
        <ele>1116</ele>
        <time>2022-05-22T16:00:37+02:00</time>
      </trkpt>
      <trkpt lat="46.28578" lon="6.56496">
        <ele>1110</ele>
        <time>2022-05-22T16:01:02+02:00</time>
      </trkpt>
      <trkpt lat="46.28571" lon="6.56488">
        <ele>1105</ele>
        <time>2022-05-22T16:01:13+02:00</time>
      </trkpt>
      <trkpt lat="46.28567" lon="6.56475">
        <ele>1105</ele>
        <time>2022-05-22T16:01:24+02:00</time>
      </trkpt>
      <trkpt lat="46.28563" lon="6.56462">
        <ele>1108</ele>
        <time>2022-05-22T16:01:34+02:00</time>
      </trkpt>
      <trkpt lat="46.28559" lon="6.56451">
        <ele>1102</ele>
        <time>2022-05-22T16:01:45+02:00</time>
      </trkpt>
      <trkpt lat="46.28553" lon="6.5644">
        <ele>1098</ele>
        <time>2022-05-22T16:01:57+02:00</time>
      </trkpt>
      <trkpt lat="46.28547" lon="6.56431">
        <ele>1090</ele>
        <time>2022-05-22T16:02:14+02:00</time>
      </trkpt>
      <trkpt lat="46.28541" lon="6.5642">
        <ele>1088</ele>
        <time>2022-05-22T16:02:31+02:00</time>
      </trkpt>
      <trkpt lat="46.28535" lon="6.5641">
        <ele>1083</ele>
        <time>2022-05-22T16:02:41+02:00</time>
      </trkpt>
      <trkpt lat="46.2853" lon="6.56398">
        <ele>1081</ele>
        <time>2022-05-22T16:03:01+02:00</time>
      </trkpt>
      <trkpt lat="46.28528" lon="6.56385">
        <ele>1079</ele>
        <time>2022-05-22T16:03:12+02:00</time>
      </trkpt>
      <trkpt lat="46.28522" lon="6.56374">
        <ele>1077</ele>
        <time>2022-05-22T16:03:22+02:00</time>
      </trkpt>
      <trkpt lat="46.28515" lon="6.56364">
        <ele>1075</ele>
        <time>2022-05-22T16:03:30+02:00</time>
      </trkpt>
      <trkpt lat="46.28508" lon="6.56356">
        <ele>1072</ele>
        <time>2022-05-22T16:03:45+02:00</time>
      </trkpt>
      <trkpt lat="46.28499" lon="6.56352">
        <ele>1070</ele>
        <time>2022-05-22T16:04:00+02:00</time>
      </trkpt>
      <trkpt lat="46.28493" lon="6.56341">
        <ele>1067</ele>
        <time>2022-05-22T16:04:15+02:00</time>
      </trkpt>
      <trkpt lat="46.28488" lon="6.56331">
        <ele>1062</ele>
        <time>2022-05-22T16:04:30+02:00</time>
      </trkpt>
      <trkpt lat="46.28485" lon="6.56318">
        <ele>1060</ele>
        <time>2022-05-22T16:04:43+02:00</time>
      </trkpt>
      <trkpt lat="46.2848" lon="6.56306">
        <ele>1056</ele>
        <time>2022-05-22T16:04:56+02:00</time>
      </trkpt>
      <trkpt lat="46.28472" lon="6.56299">
        <ele>1054</ele>
        <time>2022-05-22T16:05:17+02:00</time>
      </trkpt>
      <trkpt lat="46.28464" lon="6.56293">
        <ele>1050</ele>
        <time>2022-05-22T16:05:23+02:00</time>
      </trkpt>
      <trkpt lat="46.28457" lon="6.56284">
        <ele>1051</ele>
        <time>2022-05-22T16:05:34+02:00</time>
      </trkpt>
      <trkpt lat="46.2845" lon="6.56274">
        <ele>1049</ele>
        <time>2022-05-22T16:05:47+02:00</time>
      </trkpt>
      <trkpt lat="46.28442" lon="6.56268">
        <ele>1044</ele>
        <time>2022-05-22T16:05:57+02:00</time>
      </trkpt>
      <trkpt lat="46.28447" lon="6.56256">
        <ele>1041</ele>
        <time>2022-05-22T16:06:09+02:00</time>
      </trkpt>
      <trkpt lat="46.28439" lon="6.56247">
        <ele>1035</ele>
        <time>2022-05-22T16:06:22+02:00</time>
      </trkpt>
      <trkpt lat="46.28444" lon="6.56236">
        <ele>1032</ele>
        <time>2022-05-22T16:06:39+02:00</time>
      </trkpt>
      <trkpt lat="46.28448" lon="6.56224">
        <ele>1029</ele>
        <time>2022-05-22T16:06:52+02:00</time>
      </trkpt>
      <trkpt lat="46.28451" lon="6.56211">
        <ele>1023</ele>
        <time>2022-05-22T16:07:10+02:00</time>
      </trkpt>
      <trkpt lat="46.2845" lon="6.56198">
        <ele>1021</ele>
        <time>2022-05-22T16:07:22+02:00</time>
      </trkpt>
      <trkpt lat="46.28449" lon="6.56185">
        <ele>1018</ele>
        <time>2022-05-22T16:08:11+02:00</time>
      </trkpt>
      <trkpt lat="46.28443" lon="6.56173">
        <ele>1014</ele>
        <time>2022-05-22T16:08:21+02:00</time>
      </trkpt>
      <trkpt lat="46.28444" lon="6.5616">
        <ele>1010</ele>
        <time>2022-05-22T16:08:30+02:00</time>
      </trkpt>
      <trkpt lat="46.28443" lon="6.56132">
        <ele>1003</ele>
        <time>2022-05-22T16:08:53+02:00</time>
      </trkpt>
      <trkpt lat="46.28442" lon="6.56119">
        <ele>999</ele>
        <time>2022-05-22T16:09:04+02:00</time>
      </trkpt>
      <trkpt lat="46.28446" lon="6.56107">
        <ele>994</ele>
        <time>2022-05-22T16:09:16+02:00</time>
      </trkpt>
      <trkpt lat="46.28445" lon="6.56093">
        <ele>992</ele>
        <time>2022-05-22T16:09:25+02:00</time>
      </trkpt>
      <trkpt lat="46.28444" lon="6.56078">
        <ele>987</ele>
        <time>2022-05-22T16:09:37+02:00</time>
      </trkpt>
      <trkpt lat="46.28444" lon="6.56064">
        <ele>982</ele>
        <time>2022-05-22T16:09:47+02:00</time>
      </trkpt>
      <trkpt lat="46.28442" lon="6.56051">
        <ele>978</ele>
        <time>2022-05-22T16:09:55+02:00</time>
      </trkpt>
      <trkpt lat="46.28444" lon="6.56038">
        <ele>974</ele>
        <time>2022-05-22T16:10:10+02:00</time>
      </trkpt>
      <trkpt lat="46.2844" lon="6.56025">
        <ele>973</ele>
        <time>2022-05-22T16:10:20+02:00</time>
      </trkpt>
      <trkpt lat="46.28446" lon="6.56015">
        <ele>970</ele>
        <time>2022-05-22T16:12:20+02:00</time>
      </trkpt>
      <trkpt lat="46.2844" lon="6.56005">
        <ele>970</ele>
        <time>2022-05-22T16:15:26+02:00</time>
      </trkpt>
      <trkpt lat="46.28443" lon="6.55992">
        <ele>967</ele>
        <time>2022-05-22T16:15:50+02:00</time>
      </trkpt>
      <trkpt lat="46.28452" lon="6.55988">
        <ele>966</ele>
        <time>2022-05-22T16:16:08+02:00</time>
      </trkpt>
      <trkpt lat="46.28458" lon="6.55977">
        <ele>967</ele>
        <time>2022-05-22T16:16:15+02:00</time>
      </trkpt>
      <trkpt lat="46.28462" lon="6.55965">
        <ele>966</ele>
        <time>2022-05-22T16:16:24+02:00</time>
      </trkpt>
      <trkpt lat="46.28466" lon="6.55952">
        <ele>965</ele>
        <time>2022-05-22T16:16:31+02:00</time>
      </trkpt>
      <trkpt lat="46.28467" lon="6.55939">
        <ele>963</ele>
        <time>2022-05-22T16:16:38+02:00</time>
      </trkpt>
      <trkpt lat="46.28461" lon="6.55928">
        <ele>963</ele>
        <time>2022-05-22T16:17:02+02:00</time>
      </trkpt>
      <trkpt lat="46.28462" lon="6.55914">
        <ele>962</ele>
        <time>2022-05-22T16:17:39+02:00</time>
      </trkpt>
      <trkpt lat="46.28462" lon="6.559">
        <ele>961</ele>
        <time>2022-05-22T16:17:52+02:00</time>
      </trkpt>
      <trkpt lat="46.28461" lon="6.55886">
        <ele>960</ele>
        <time>2022-05-22T16:18:09+02:00</time>
      </trkpt>
      <trkpt lat="46.28462" lon="6.55873">
        <ele>960</ele>
        <time>2022-05-22T16:18:18+02:00</time>
      </trkpt>
      <trkpt lat="46.28463" lon="6.55859">
        <ele>954</ele>
        <time>2022-05-22T16:18:30+02:00</time>
      </trkpt>
      <trkpt lat="46.28467" lon="6.55846">
        <ele>955</ele>
        <time>2022-05-22T16:18:40+02:00</time>
      </trkpt>
      <trkpt lat="46.2847" lon="6.55833">
        <ele>955</ele>
        <time>2022-05-22T16:18:48+02:00</time>
      </trkpt>
      <trkpt lat="46.28472" lon="6.5582">
        <ele>955</ele>
        <time>2022-05-22T16:18:56+02:00</time>
      </trkpt>
      <trkpt lat="46.28476" lon="6.55807">
        <ele>955</ele>
        <time>2022-05-22T16:19:07+02:00</time>
      </trkpt>
      <trkpt lat="46.28481" lon="6.55796">
        <ele>955</ele>
        <time>2022-05-22T16:19:18+02:00</time>
      </trkpt>
      <trkpt lat="46.28488" lon="6.55786">
        <ele>954</ele>
        <time>2022-05-22T16:19:28+02:00</time>
      </trkpt>
      <trkpt lat="46.28495" lon="6.55777">
        <ele>953</ele>
        <time>2022-05-22T16:19:39+02:00</time>
      </trkpt>
      <trkpt lat="46.285" lon="6.55766">
        <ele>951</ele>
        <time>2022-05-22T16:20:00+02:00</time>
      </trkpt>
      <trkpt lat="46.28505" lon="6.55754">
        <ele>950</ele>
        <time>2022-05-22T16:20:12+02:00</time>
      </trkpt>
      <trkpt lat="46.28509" lon="6.55743">
        <ele>949</ele>
        <time>2022-05-22T16:20:21+02:00</time>
      </trkpt>
      <trkpt lat="46.2851" lon="6.55729">
        <ele>947</ele>
        <time>2022-05-22T16:20:31+02:00</time>
      </trkpt>
      <trkpt lat="46.2851" lon="6.55716">
        <ele>948</ele>
        <time>2022-05-22T16:20:41+02:00</time>
      </trkpt>
      <trkpt lat="46.28511" lon="6.55703">
        <ele>947</ele>
        <time>2022-05-22T16:20:50+02:00</time>
      </trkpt>
      <trkpt lat="46.28516" lon="6.55691">
        <ele>946</ele>
        <time>2022-05-22T16:21:00+02:00</time>
      </trkpt>
      <trkpt lat="46.28519" lon="6.55678">
        <ele>945</ele>
        <time>2022-05-22T16:21:07+02:00</time>
      </trkpt>
      <trkpt lat="46.28524" lon="6.55667">
        <ele>944</ele>
        <time>2022-05-22T16:21:15+02:00</time>
      </trkpt>
      <trkpt lat="46.28527" lon="6.55655">
        <ele>943</ele>
        <time>2022-05-22T16:21:24+02:00</time>
      </trkpt>
      <trkpt lat="46.28529" lon="6.5564">
        <ele>942</ele>
        <time>2022-05-22T16:21:34+02:00</time>
      </trkpt>
      <trkpt lat="46.28533" lon="6.55627">
        <ele>941</ele>
        <time>2022-05-22T16:21:42+02:00</time>
      </trkpt>
      <trkpt lat="46.28537" lon="6.55614">
        <ele>941</ele>
        <time>2022-05-22T16:21:50+02:00</time>
      </trkpt>
      <trkpt lat="46.28544" lon="6.55605">
        <ele>939</ele>
        <time>2022-05-22T16:21:59+02:00</time>
      </trkpt>
      <trkpt lat="46.28549" lon="6.55593">
        <ele>938</ele>
        <time>2022-05-22T16:22:08+02:00</time>
      </trkpt>
      <trkpt lat="46.2854" lon="6.55588">
        <ele>933</ele>
        <time>2022-05-22T16:22:25+02:00</time>
      </trkpt>
      <trkpt lat="46.28532" lon="6.55597">
        <ele>933</ele>
        <time>2022-05-22T16:22:34+02:00</time>
      </trkpt>
      <trkpt lat="46.28525" lon="6.55606">
        <ele>932</ele>
        <time>2022-05-22T16:22:41+02:00</time>
      </trkpt>
      <trkpt lat="46.28518" lon="6.55617">
        <ele>931</ele>
        <time>2022-05-22T16:22:49+02:00</time>
      </trkpt>
      <trkpt lat="46.28511" lon="6.55626">
        <ele>930</ele>
        <time>2022-05-22T16:22:58+02:00</time>
      </trkpt>
      <trkpt lat="46.2851" lon="6.5564">
        <ele>928</ele>
        <time>2022-05-22T16:23:08+02:00</time>
      </trkpt>
      <trkpt lat="46.28504" lon="6.55651">
        <ele>927</ele>
        <time>2022-05-22T16:23:18+02:00</time>
      </trkpt>
      <trkpt lat="46.28498" lon="6.5566">
        <ele>926</ele>
        <time>2022-05-22T16:23:25+02:00</time>
      </trkpt>
      <trkpt lat="46.2849" lon="6.55668">
        <ele>926</ele>
        <time>2022-05-22T16:23:33+02:00</time>
      </trkpt>
      <trkpt lat="46.28483" lon="6.55676">
        <ele>925</ele>
        <time>2022-05-22T16:23:41+02:00</time>
      </trkpt>
      <trkpt lat="46.28474" lon="6.55685">
        <ele>924</ele>
        <time>2022-05-22T16:23:49+02:00</time>
      </trkpt>
      <trkpt lat="46.28466" lon="6.55692">
        <ele>922</ele>
        <time>2022-05-22T16:23:59+02:00</time>
      </trkpt>
      <trkpt lat="46.28457" lon="6.557">
        <ele>920</ele>
        <time>2022-05-22T16:24:09+02:00</time>
      </trkpt>
      <trkpt lat="46.28449" lon="6.55704">
        <ele>918</ele>
        <time>2022-05-22T16:24:20+02:00</time>
      </trkpt>
      <trkpt lat="46.2844" lon="6.55708">
        <ele>917</ele>
        <time>2022-05-22T16:24:33+02:00</time>
      </trkpt>
      <trkpt lat="46.28438" lon="6.55695">
        <ele>915</ele>
        <time>2022-05-22T16:24:41+02:00</time>
      </trkpt>
      <trkpt lat="46.28445" lon="6.55686">
        <ele>913</ele>
        <time>2022-05-22T16:24:52+02:00</time>
      </trkpt>
      <trkpt lat="46.28453" lon="6.55677">
        <ele>913</ele>
        <time>2022-05-22T16:25:03+02:00</time>
      </trkpt>
      <trkpt lat="46.2846" lon="6.55667">
        <ele>912</ele>
        <time>2022-05-22T16:25:10+02:00</time>
      </trkpt>
      <trkpt lat="46.28468" lon="6.5566">
        <ele>911</ele>
        <time>2022-05-22T16:25:21+02:00</time>
      </trkpt>
      <trkpt lat="46.28474" lon="6.55647">
        <ele>911</ele>
        <time>2022-05-22T16:25:28+02:00</time>
      </trkpt>
      <trkpt lat="46.28479" lon="6.55636">
        <ele>910</ele>
        <time>2022-05-22T16:25:35+02:00</time>
      </trkpt>
      <trkpt lat="46.2848" lon="6.5561">
        <ele>908</ele>
        <time>2022-05-22T16:25:59+02:00</time>
      </trkpt>
      <trkpt lat="46.28479" lon="6.55597">
        <ele>906</ele>
        <time>2022-05-22T16:26:07+02:00</time>
      </trkpt>
      <trkpt lat="46.2847" lon="6.556">
        <ele>902</ele>
        <time>2022-05-22T16:26:21+02:00</time>
      </trkpt>
      <trkpt lat="46.28462" lon="6.5561">
        <ele>900</ele>
        <time>2022-05-22T16:26:32+02:00</time>
      </trkpt>
      <trkpt lat="46.28453" lon="6.55616">
        <ele>899</ele>
        <time>2022-05-22T16:26:43+02:00</time>
      </trkpt>
      <trkpt lat="46.28445" lon="6.5561">
        <ele>899</ele>
        <time>2022-05-22T16:26:54+02:00</time>
      </trkpt>
      <trkpt lat="46.28437" lon="6.55601">
        <ele>899</ele>
        <time>2022-05-22T16:27:04+02:00</time>
      </trkpt>
      <trkpt lat="46.28429" lon="6.55595">
        <ele>898</ele>
        <time>2022-05-22T16:27:12+02:00</time>
      </trkpt>
      <trkpt lat="46.28428" lon="6.5558">
        <ele>896</ele>
        <time>2022-05-22T16:27:25+02:00</time>
      </trkpt>
      <trkpt lat="46.28429" lon="6.55566">
        <ele>896</ele>
        <time>2022-05-22T16:27:35+02:00</time>
      </trkpt>
      <trkpt lat="46.28429" lon="6.55553">
        <ele>894</ele>
        <time>2022-05-22T16:27:59+02:00</time>
      </trkpt>
    </trkseg>
  </trk>
</gpx>